FDX247 KMCO-GOBD
Flight info
| Callsign | FDX247 |
|---|---|
| Flight time | 7h 41m |
| Altitude | 31000 |
| Route | MZULO3 LENDS M203 SNAGY 2960N 2957N 2950N 2945N 2842N 2740N 2434N ULTEM UR976 LUMPO R976 LIGOV |
| Aircraft | B77L/H-SDE1E2E3FGHIJ2J3J4J5M1RWXY/LB1D1 |
Departure
| Time | 2026-04-25 14:24 |
|---|---|
| Airport | Orlando International Airport (KMCO) |
Arrival
| Time | 2026-04-25 22:05 |
|---|---|
| Airport | Blaise Diagne International Airport (GOBD) |
| Time | Latitude | Longitude | Altitude | Speed | Heading |
|---|---|---|---|---|---|
| 2026-04-25 13:39 | 28.41474 | -81.33492 | 102 ft | 0 kts | 358° |
| 2026-04-25 14:00 | 28.41478 | -81.33492 | 102 ft | 1 kts | 0° |
| 2026-04-25 14:00 | 28.41484 | -81.33474 | 104 ft | 4 kts | 99° |
| 2026-04-25 14:00 | 28.41456 | -81.33433 | 103 ft | 4 kts | 132° |
| 2026-04-25 14:00 | 28.41436 | -81.33408 | 105 ft | 2 kts | 146° |
| 2026-04-25 14:01 | 28.41417 | -81.33393 | 104 ft | 8 kts | 138° |
| 2026-04-25 14:01 | 28.41404 | -81.33339 | 103 ft | 0 kts | 91° |
| 2026-04-25 14:02 | 28.41404 | -81.33327 | 102 ft | 8 kts | 91° |
| 2026-04-25 14:02 | 28.41404 | -81.33166 | 102 ft | 29 kts | 89° |
| 2026-04-25 14:02 | 28.41470 | -81.32987 | 103 ft | 12 kts | 47° |
| 2026-04-25 14:02 | 28.41479 | -81.32976 | 105 ft | 0 kts | 47° |
| 2026-04-25 14:04 | 28.41500 | -81.32951 | 106 ft | 13 kts | 47° |
| 2026-04-25 14:04 | 28.41537 | -81.32837 | 105 ft | 16 kts | 87° |
| 2026-04-25 14:04 | 28.41539 | -81.32708 | 105 ft | 16 kts | 89° |
| 2026-04-25 14:05 | 28.41541 | -81.32581 | 104 ft | 16 kts | 89° |
| 2026-04-25 14:05 | 28.41541 | -81.32452 | 102 ft | 16 kts | 90° |
| 2026-04-25 14:05 | 28.41541 | -81.32324 | 102 ft | 16 kts | 89° |
| 2026-04-25 14:05 | 28.41542 | -81.32195 | 101 ft | 16 kts | 89° |
| 2026-04-25 14:06 | 28.41544 | -81.32058 | 102 ft | 19 kts | 89° |
| 2026-04-25 14:06 | 28.41545 | -81.32026 | 102 ft | 0 kts | 91° |
| 2026-04-25 14:06 | 28.41557 | -81.31998 | 102 ft | 14 kts | 51° |
| 2026-04-25 14:06 | 28.41706 | -81.31981 | 103 ft | 26 kts | 359° |
| 2026-04-25 14:07 | 28.41873 | -81.31982 | 103 ft | 22 kts | 359° |
| 2026-04-25 14:07 | 28.42014 | -81.31984 | 104 ft | 20 kts | 359° |
| 2026-04-25 14:07 | 28.42154 | -81.31985 | 104 ft | 20 kts | 359° |
| 2026-04-25 14:07 | 28.42281 | -81.31987 | 107 ft | 18 kts | 1° |
| 2026-04-25 14:08 | 28.42345 | -81.31895 | 105 ft | 17 kts | 87° |
| 2026-04-25 14:08 | 28.42348 | -81.31761 | 104 ft | 17 kts | 89° |
| 2026-04-25 14:08 | 28.42349 | -81.31586 | 102 ft | 31 kts | 90° |
| 2026-04-25 14:08 | 28.42349 | -81.31379 | 99 ft | 31 kts | 90° |
| 2026-04-25 14:09 | 28.42337 | -81.31162 | 99 ft | 28 kts | 99° |
| 2026-04-25 14:09 | 28.42313 | -81.30949 | 101 ft | 27 kts | 93° |
| 2026-04-25 14:09 | 28.42328 | -81.30798 | 101 ft | 13 kts | 82° |
| 2026-04-25 14:09 | 28.42334 | -81.30739 | 101 ft | 0 kts | 87° |
| 2026-04-25 14:10 | 28.42335 | -81.30713 | 103 ft | 11 kts | 87° |
| 2026-04-25 14:10 | 28.42345 | -81.30555 | 100 ft | 23 kts | 85° |
| 2026-04-25 14:10 | 28.42349 | -81.30487 | 98 ft | 0 kts | 86° |
| 2026-04-25 14:11 | 28.42350 | -81.30483 | 98 ft | 3 kts | 86° |
| 2026-04-25 14:11 | 28.42354 | -81.30389 | 99 ft | 23 kts | 87° |
| 2026-04-25 14:11 | 28.42360 | -81.30143 | 100 ft | 35 kts | 89° |
| 2026-04-25 14:11 | 28.42361 | -81.29936 | 99 ft | 14 kts | 90° |
| 2026-04-25 14:12 | 28.42362 | -81.29891 | 99 ft | 5 kts | 88° |
| 2026-04-25 14:12 | 28.42400 | -81.29808 | 102 ft | 13 kts | 34° |
| 2026-04-25 14:12 | 28.42410 | -81.29802 | 101 ft | 0 kts | 28° |
| 2026-04-25 14:13 | 28.42426 | -81.29797 | 99 ft | 8 kts | 12° |
| 2026-04-25 14:13 | 28.42516 | -81.29795 | 101 ft | 17 kts | 358° |
| 2026-04-25 14:13 | 28.42657 | -81.29799 | 100 ft | 23 kts | 359° |
| 2026-04-25 14:13 | 28.42828 | -81.29800 | 100 ft | 25 kts | 0° |
| 2026-04-25 14:14 | 28.43004 | -81.29799 | 100 ft | 24 kts | 358° |
| 2026-04-25 14:14 | 28.43137 | -81.29801 | 100 ft | 12 kts | 1° |
| 2026-04-25 14:14 | 28.43156 | -81.29801 | 102 ft | 0 kts | 360° |
| 2026-04-25 14:16 | 28.43215 | -81.29802 | 100 ft | 19 kts | 359° |
| 2026-04-25 14:16 | 28.43282 | -81.29804 | 100 ft | 0 kts | 359° |
| 2026-04-25 14:16 | 28.43287 | -81.29804 | 99 ft | 0 kts | 359° |
| 2026-04-25 14:18 | 28.43289 | -81.29804 | 99 ft | 4 kts | 359° |
| 2026-04-25 14:18 | 28.43386 | -81.29805 | 100 ft | 21 kts | 359° |
| 2026-04-25 14:19 | 28.43506 | -81.29805 | 101 ft | 7 kts | 7° |
| 2026-04-25 14:19 | 28.43541 | -81.29786 | 102 ft | 9 kts | 40° |
| 2026-04-25 14:19 | 28.43551 | -81.29763 | 102 ft | 6 kts | 76° |
| 2026-04-25 14:19 | 28.43551 | -81.29708 | 102 ft | 0 kts | 91° |
| 2026-04-25 14:21 | 28.43551 | -81.29704 | 102 ft | 4 kts | 91° |
| 2026-04-25 14:21 | 28.43540 | -81.29626 | 102 ft | 13 kts | 114° |
| 2026-04-25 14:21 | 28.43481 | -81.29587 | 102 ft | 0 kts | 180° |
| 2026-04-25 14:23 | 28.43298 | -81.29588 | 104 ft | 60 kts | 180° |
| 2026-04-25 14:23 | 28.42662 | -81.29579 | 101 ft | 123 kts | 179° |
| 2026-04-25 14:24 | 28.41609 | -81.29569 | 103 ft | 175 kts | 180° |
| 2026-04-25 14:24 | 28.40368 | -81.29578 | 487 ft | 179 kts | 184° |
| 2026-04-25 14:24 | 28.39108 | -81.29572 | 930 ft | 186 kts | 181° |
| 2026-04-25 14:24 | 28.37773 | -81.29508 | 1409 ft | 193 kts | 179° |
| 2026-04-25 14:25 | 28.36476 | -81.29122 | 1746 ft | 205 kts | 150° |
| 2026-04-25 14:25 | 28.35335 | -81.28036 | 1897 ft | 222 kts | 139° |
| 2026-04-25 14:25 | 28.34157 | -81.26786 | 2089 ft | 242 kts | 140° |
| 2026-04-25 14:25 | 28.33745 | -81.26356 | 2141 ft | 250 kts | 139° |
| 2026-04-25 14:26 | 28.31598 | -81.23916 | 2916 ft | 269 kts | 130° |
| 2026-04-25 14:26 | 28.30793 | -81.21976 | 3435 ft | 279 kts | 95° |
| 2026-04-25 14:26 | 28.31083 | -81.19828 | 4118 ft | 278 kts | 61° |
| 2026-04-25 14:26 | 28.32035 | -81.17921 | 4650 ft | 281 kts | 60° |
| 2026-04-25 14:27 | 28.32939 | -81.15911 | 5283 ft | 286 kts | 62° |
| 2026-04-25 14:27 | 28.33804 | -81.13917 | 6130 ft | 284 kts | 62° |
| 2026-04-25 14:27 | 28.34700 | -81.11913 | 6881 ft | 284 kts | 61° |
| 2026-04-25 14:27 | 28.35624 | -81.09880 | 7389 ft | 291 kts | 61° |
| 2026-04-25 14:28 | 28.36557 | -81.07810 | 7975 ft | 295 kts | 62° |
| 2026-04-25 14:28 | 28.37474 | -81.05752 | 8606 ft | 297 kts | 62° |
| 2026-04-25 14:28 | 28.38409 | -81.03647 | 9176 ft | 299 kts | 62° |
| 2026-04-25 14:28 | 28.39352 | -81.01512 | 9817 ft | 303 kts | 62° |
| 2026-04-25 14:29 | 28.40302 | -80.99352 | 10395 ft | 309 kts | 62° |
| 2026-04-25 14:29 | 28.41283 | -80.97118 | 10608 ft | 330 kts | 62° |
| 2026-04-25 14:29 | 28.42348 | -80.94709 | 10751 ft | 351 kts | 62° |
| 2026-04-25 14:29 | 28.43467 | -80.92154 | 10911 ft | 371 kts | 62° |
| 2026-04-25 14:30 | 28.44640 | -80.89464 | 11291 ft | 386 kts | 63° |
| 2026-04-25 14:30 | 28.46967 | -80.83877 | 12599 ft | 399 kts | 69° |
| 2026-04-25 14:30 | 28.47786 | -80.80823 | 13374 ft | 403 kts | 76° |
| 2026-04-25 14:31 | 28.48287 | -80.77709 | 13995 ft | 406 kts | 82° |
| 2026-04-25 14:31 | 28.48641 | -80.74481 | 13975 ft | 413 kts | 83° |
| 2026-04-25 14:31 | 28.48975 | -80.71253 | 14000 ft | 410 kts | 83° |
| 2026-04-25 14:31 | 28.49309 | -80.68035 | 14001 ft | 408 kts | 83° |
| 2026-04-25 14:32 | 28.49651 | -80.64824 | 13997 ft | 407 kts | 83° |
| 2026-04-25 14:32 | 28.49992 | -80.61668 | 14004 ft | 407 kts | 83° |
| 2026-04-25 14:32 | 28.50341 | -80.58472 | 14007 ft | 407 kts | 83° |
| 2026-04-25 14:32 | 28.50691 | -80.55261 | 14011 ft | 408 kts | 82° |
| 2026-04-25 14:33 | 28.50924 | -80.53132 | 14006 ft | 409 kts | 82° |
| 2026-04-25 14:33 | 28.51281 | -80.49915 | 14002 ft | 409 kts | 82° |
| 2026-04-25 14:33 | 28.51636 | -80.46700 | 14004 ft | 409 kts | 82° |
| 2026-04-25 14:33 | 28.51988 | -80.43483 | 14008 ft | 409 kts | 83° |
| 2026-04-25 14:34 | 28.52338 | -80.40273 | 14003 ft | 409 kts | 83° |
| 2026-04-25 14:34 | 28.52687 | -80.37066 | 14002 ft | 408 kts | 83° |
| 2026-04-25 14:34 | 28.53032 | -80.33898 | 14007 ft | 408 kts | 83° |
| 2026-04-25 14:34 | 28.53455 | -80.30708 | 14004 ft | 408 kts | 77° |
| 2026-04-25 14:35 | 28.54183 | -80.27589 | 14002 ft | 407 kts | 71° |
| 2026-04-25 14:35 | 28.55207 | -80.24590 | 14000 ft | 406 kts | 65° |
| 2026-04-25 14:35 | 28.56337 | -80.21648 | 14008 ft | 406 kts | 65° |
| 2026-04-25 14:35 | 28.57479 | -80.18694 | 14001 ft | 406 kts | 65° |
| 2026-04-25 14:36 | 28.58602 | -80.15781 | 14000 ft | 406 kts | 65° |
| 2026-04-25 14:36 | 28.59735 | -80.12827 | 14000 ft | 406 kts | 65° |
| 2026-04-25 14:36 | 28.60859 | -80.09878 | 14002 ft | 406 kts | 65° |
| 2026-04-25 14:36 | 28.61980 | -80.06925 | 14002 ft | 406 kts | 66° |
| 2026-04-25 14:37 | 28.63103 | -80.03956 | 14004 ft | 406 kts | 66° |
| 2026-04-25 14:37 | 28.64206 | -80.01038 | 14001 ft | 407 kts | 66° |
| 2026-04-25 14:37 | 28.65326 | -79.98070 | 14006 ft | 407 kts | 66° |
| 2026-04-25 14:37 | 28.66448 | -79.95092 | 14000 ft | 407 kts | 66° |
| 2026-04-25 14:38 | 28.67564 | -79.92129 | 14004 ft | 407 kts | 66° |
| 2026-04-25 14:38 | 28.68668 | -79.89198 | 14002 ft | 407 kts | 66° |
| 2026-04-25 14:38 | 28.69785 | -79.86227 | 14006 ft | 407 kts | 66° |
| 2026-04-25 14:38 | 28.70902 | -79.83255 | 14000 ft | 407 kts | 66° |
| 2026-04-25 14:39 | 28.72018 | -79.80284 | 14000 ft | 407 kts | 66° |
| 2026-04-25 14:39 | 28.73131 | -79.77318 | 14003 ft | 407 kts | 66° |
| 2026-04-25 14:39 | 28.74233 | -79.74378 | 14005 ft | 407 kts | 66° |
| 2026-04-25 14:39 | 28.75346 | -79.71408 | 14009 ft | 407 kts | 66° |
| 2026-04-25 14:40 | 28.76460 | -79.68432 | 14003 ft | 408 kts | 66° |
| 2026-04-25 14:40 | 28.77573 | -79.65458 | 14001 ft | 408 kts | 66° |
| 2026-04-25 14:40 | 28.78687 | -79.62476 | 14003 ft | 408 kts | 66° |
| 2026-04-25 14:40 | 28.79801 | -79.59493 | 14006 ft | 408 kts | 66° |
| 2026-04-25 14:41 | 28.80969 | -79.56596 | 13989 ft | 407 kts | 61° |
| 2026-04-25 14:41 | 28.82416 | -79.53835 | 14000 ft | 405 kts | 54° |
| 2026-04-25 14:41 | 28.84078 | -79.51196 | 14002 ft | 404 kts | 52° |
| 2026-04-25 14:41 | 28.85714 | -79.48633 | 13999 ft | 404 kts | 52° |
| 2026-04-25 14:42 | 28.87369 | -79.46037 | 14002 ft | 404 kts | 53° |
| 2026-04-25 14:42 | 28.88469 | -79.44306 | 14004 ft | 404 kts | 53° |
| 2026-04-25 14:42 | 28.90674 | -79.40820 | 14003 ft | 404 kts | 53° |
| 2026-04-25 14:42 | 28.92320 | -79.38206 | 14000 ft | 405 kts | 53° |
| 2026-04-25 14:43 | 28.93960 | -79.35596 | 13997 ft | 405 kts | 53° |
| 2026-04-25 14:43 | 28.95582 | -79.33009 | 14000 ft | 405 kts | 53° |
| 2026-04-25 14:43 | 28.97221 | -79.30393 | 14002 ft | 405 kts | 53° |
| 2026-04-25 14:43 | 28.98868 | -79.27760 | 14000 ft | 405 kts | 53° |
| 2026-04-25 14:44 | 29.00507 | -79.25139 | 14003 ft | 405 kts | 53° |
| 2026-04-25 14:44 | 29.02150 | -79.22510 | 14002 ft | 405 kts | 53° |
| 2026-04-25 14:44 | 29.03789 | -79.19886 | 14003 ft | 406 kts | 53° |
| 2026-04-25 14:44 | 29.05414 | -79.17282 | 14002 ft | 406 kts | 53° |
| 2026-04-25 14:45 | 29.07055 | -79.14652 | 14003 ft | 406 kts | 53° |
| 2026-04-25 14:45 | 29.08696 | -79.12020 | 14005 ft | 405 kts | 53° |
| 2026-04-25 14:45 | 29.10336 | -79.09388 | 14012 ft | 406 kts | 53° |
| 2026-04-25 14:45 | 29.11967 | -79.06770 | 14535 ft | 411 kts | 53° |
| 2026-04-25 14:46 | 29.13631 | -79.04096 | 15289 ft | 412 kts | 53° |
| 2026-04-25 14:46 | 29.15302 | -79.01409 | 16002 ft | 415 kts | 53° |
| 2026-04-25 14:46 | 29.16986 | -78.98700 | 16633 ft | 419 kts | 53° |
| 2026-04-25 14:46 | 29.18667 | -78.95993 | 17214 ft | 423 kts | 53° |
| 2026-04-25 14:47 | 29.20387 | -78.93221 | 17815 ft | 427 kts | 53° |
| 2026-04-25 14:47 | 29.21533 | -78.91374 | 18215 ft | 429 kts | 53° |
| 2026-04-25 14:47 | 29.23842 | -78.87649 | 18990 ft | 434 kts | 53° |
| 2026-04-25 14:47 | 29.25597 | -78.84815 | 19564 ft | 437 kts | 53° |
| 2026-04-25 14:48 | 29.27363 | -78.81962 | 20111 ft | 441 kts | 53° |
| 2026-04-25 14:48 | 29.29151 | -78.79070 | 20665 ft | 445 kts | 53° |
| 2026-04-25 14:48 | 29.30953 | -78.76154 | 21185 ft | 448 kts | 53° |
| 2026-04-25 14:48 | 29.32736 | -78.73267 | 21679 ft | 451 kts | 53° |
| 2026-04-25 14:49 | 29.34563 | -78.70307 | 22175 ft | 455 kts | 53° |
| 2026-04-25 14:49 | 29.36402 | -78.67326 | 22680 ft | 458 kts | 53° |
| 2026-04-25 14:49 | 29.38249 | -78.64330 | 23142 ft | 461 kts | 53° |
| 2026-04-25 14:49 | 29.40109 | -78.61313 | 23611 ft | 464 kts | 53° |
| 2026-04-25 14:50 | 29.41983 | -78.58274 | 24064 ft | 467 kts | 53° |
| 2026-04-25 14:50 | 29.43848 | -78.55250 | 24511 ft | 471 kts | 53° |
| 2026-04-25 14:50 | 29.45745 | -78.52162 | 24938 ft | 472 kts | 55° |
| 2026-04-25 14:50 | 29.47378 | -78.48859 | 25291 ft | 478 kts | 65° |
| 2026-04-25 14:51 | 29.48468 | -78.45280 | 25673 ft | 482 kts | 75° |
| 2026-04-25 14:51 | 29.49114 | -78.41488 | 26095 ft | 484 kts | 83° |
| 2026-04-25 14:51 | 29.49415 | -78.37631 | 26461 ft | 487 kts | 85° |
| 2026-04-25 14:51 | 29.49693 | -78.33732 | 26817 ft | 490 kts | 85° |
| 2026-04-25 14:52 | 29.49975 | -78.29811 | 27193 ft | 493 kts | 85° |
| 2026-04-25 14:52 | 29.50263 | -78.25919 | 27576 ft | 495 kts | 85° |
| 2026-04-25 14:52 | 29.50567 | -78.21957 | 27947 ft | 498 kts | 85° |
| 2026-04-25 14:52 | 29.50772 | -78.19325 | 28181 ft | 500 kts | 84° |
| 2026-04-25 14:53 | 29.51194 | -78.13991 | 28639 ft | 503 kts | 84° |
| 2026-04-25 14:53 | 29.51513 | -78.09977 | 28963 ft | 505 kts | 84° |
| 2026-04-25 14:53 | 29.51833 | -78.05938 | 29269 ft | 508 kts | 84° |
| 2026-04-25 14:53 | 29.52148 | -78.01942 | 29548 ft | 510 kts | 84° |
| 2026-04-25 14:54 | 29.52468 | -77.97866 | 29824 ft | 512 kts | 84° |
| 2026-04-25 14:54 | 29.52788 | -77.93775 | 30089 ft | 514 kts | 85° |
| 2026-04-25 14:54 | 29.53106 | -77.89679 | 30384 ft | 515 kts | 85° |
| 2026-04-25 14:54 | 29.53422 | -77.85590 | 30754 ft | 514 kts | 85° |
| 2026-04-25 14:55 | 29.53733 | -77.81540 | 31047 ft | 514 kts | 85° |
| 2026-04-25 14:55 | 29.54048 | -77.77435 | 30993 ft | 516 kts | 85° |
| 2026-04-25 14:55 | 29.54602 | -77.70161 | 30996 ft | 512 kts | 85° |
| 2026-04-25 14:56 | 29.55214 | -77.62076 | 31004 ft | 510 kts | 85° |
| 2026-04-25 14:56 | 29.55824 | -77.53950 | 31004 ft | 510 kts | 85° |
| 2026-04-25 14:57 | 29.56430 | -77.45816 | 30996 ft | 510 kts | 85° |
| 2026-04-25 14:57 | 29.57030 | -77.37685 | 31005 ft | 511 kts | 85° |
| 2026-04-25 14:58 | 29.57623 | -77.29584 | 30996 ft | 512 kts | 85° |
| 2026-04-25 14:58 | 29.58216 | -77.21418 | 31001 ft | 512 kts | 85° |
| 2026-04-25 14:59 | 29.58801 | -77.13279 | 30995 ft | 513 kts | 85° |
| 2026-04-25 14:59 | 29.59387 | -77.05077 | 31007 ft | 513 kts | 85° |
| 2026-04-25 15:00 | 29.59961 | -76.96950 | 31001 ft | 513 kts | 85° |
| 2026-04-25 15:00 | 29.60537 | -76.88747 | 31002 ft | 513 kts | 85° |
| 2026-04-25 15:01 | 29.61435 | -76.80646 | 31009 ft | 512 kts | 80° |
| 2026-04-25 15:01 | 29.62614 | -76.72554 | 31000 ft | 512 kts | 80° |
| 2026-04-25 15:02 | 29.63795 | -76.64465 | 31004 ft | 512 kts | 80° |
| 2026-04-25 15:02 | 29.64945 | -76.56368 | 31003 ft | 512 kts | 81° |
| 2026-04-25 15:03 | 29.66069 | -76.48322 | 31001 ft | 512 kts | 81° |
| 2026-04-25 15:03 | 29.67194 | -76.40211 | 31003 ft | 512 kts | 81° |
| 2026-04-25 15:04 | 29.68306 | -76.32166 | 31003 ft | 512 kts | 81° |
| 2026-04-25 15:04 | 29.69422 | -76.24062 | 31001 ft | 512 kts | 81° |
| 2026-04-25 15:05 | 29.70536 | -76.15942 | 30997 ft | 512 kts | 81° |
| 2026-04-25 15:06 | 29.72187 | -76.03832 | 31003 ft | 512 kts | 81° |
| 2026-04-25 15:06 | 29.73288 | -75.95712 | 31006 ft | 512 kts | 81° |
| 2026-04-25 15:07 | 29.74376 | -75.87646 | 30998 ft | 513 kts | 81° |
| 2026-04-25 15:07 | 29.75468 | -75.79516 | 31004 ft | 512 kts | 81° |
| 2026-04-25 15:08 | 29.76545 | -75.71455 | 30999 ft | 512 kts | 81° |
| 2026-04-25 15:08 | 29.77624 | -75.63343 | 30999 ft | 512 kts | 81° |
| 2026-04-25 15:09 | 29.78701 | -75.55205 | 31003 ft | 512 kts | 81° |
| 2026-04-25 15:09 | 29.80297 | -75.43068 | 31003 ft | 512 kts | 81° |
| 2026-04-25 15:10 | 29.81361 | -75.34933 | 31003 ft | 513 kts | 81° |
| 2026-04-25 15:11 | 29.82942 | -75.22772 | 31002 ft | 512 kts | 81° |
| 2026-04-25 15:11 | 29.83992 | -75.14635 | 31001 ft | 512 kts | 81° |
| 2026-04-25 15:12 | 29.85552 | -75.02484 | 31003 ft | 512 kts | 81° |
| 2026-04-25 15:12 | 29.86237 | -74.97117 | 31001 ft | 512 kts | 81° |
| 2026-04-25 15:13 | 29.88127 | -74.82226 | 31003 ft | 512 kts | 81° |
| 2026-04-25 15:14 | 29.89145 | -74.74144 | 31000 ft | 512 kts | 81° |
| 2026-04-25 15:14 | 29.90169 | -74.65972 | 31004 ft | 512 kts | 81° |
| 2026-04-25 15:15 | 29.91179 | -74.57876 | 31003 ft | 512 kts | 82° |
| 2026-04-25 15:15 | 29.92189 | -74.49734 | 31001 ft | 512 kts | 82° |
| 2026-04-25 15:16 | 29.93191 | -74.41612 | 31004 ft | 512 kts | 82° |
| 2026-04-25 15:16 | 29.94684 | -74.29434 | 30999 ft | 512 kts | 82° |
| 2026-04-25 15:17 | 29.96170 | -74.17224 | 30999 ft | 512 kts | 82° |
| 2026-04-25 15:18 | 29.96991 | -74.10437 | 31002 ft | 512 kts | 82° |
| 2026-04-25 15:18 | 29.98454 | -73.98257 | 31003 ft | 512 kts | 82° |
| 2026-04-25 15:19 | 29.99270 | -73.91430 | 31003 ft | 512 kts | 82° |
| 2026-04-25 15:19 | 30.00396 | -73.81953 | 31003 ft | 512 kts | 82° |
| 2026-04-25 15:20 | 30.01360 | -73.73788 | 31000 ft | 512 kts | 82° |
| 2026-04-25 15:20 | 30.02312 | -73.65678 | 31006 ft | 512 kts | 82° |
| 2026-04-25 15:21 | 30.03265 | -73.57527 | 30994 ft | 513 kts | 82° |
| 2026-04-25 15:21 | 30.04215 | -73.49350 | 31001 ft | 513 kts | 82° |
| 2026-04-25 15:22 | 30.05135 | -73.41227 | 30996 ft | 511 kts | 84° |
| 2026-04-25 15:22 | 30.04845 | -73.33033 | 31011 ft | 511 kts | 98° |
| 2026-04-25 15:23 | 30.03626 | -73.24983 | 30997 ft | 511 kts | 101° |
| 2026-04-25 15:23 | 30.02269 | -73.16905 | 31003 ft | 512 kts | 101° |
| 2026-04-25 15:24 | 30.00904 | -73.08884 | 31001 ft | 512 kts | 101° |
| 2026-04-25 15:24 | 29.99756 | -73.02165 | 31003 ft | 512 kts | 101° |
| 2026-04-25 15:25 | 29.98142 | -72.92726 | 31004 ft | 513 kts | 101° |
| 2026-04-25 15:25 | 29.96771 | -72.84685 | 31000 ft | 513 kts | 101° |
| 2026-04-25 15:26 | 29.95394 | -72.76598 | 31002 ft | 513 kts | 101° |
| 2026-04-25 15:26 | 29.94028 | -72.68548 | 31004 ft | 513 kts | 101° |
| 2026-04-25 15:27 | 29.92667 | -72.60505 | 30998 ft | 512 kts | 101° |
| 2026-04-25 15:28 | 29.90625 | -72.48398 | 30999 ft | 512 kts | 101° |
| 2026-04-25 15:28 | 29.89275 | -72.40362 | 31002 ft | 512 kts | 101° |
| 2026-04-25 15:29 | 29.87922 | -72.32285 | 31003 ft | 512 kts | 101° |
| 2026-04-25 15:29 | 29.86575 | -72.24223 | 31001 ft | 512 kts | 101° |
| 2026-04-25 15:30 | 29.85239 | -72.16201 | 31003 ft | 512 kts | 101° |
| 2026-04-25 15:30 | 29.83898 | -72.08123 | 31001 ft | 512 kts | 101° |
| 2026-04-25 15:31 | 29.82570 | -72.00102 | 31001 ft | 512 kts | 101° |
| 2026-04-25 15:31 | 29.81237 | -71.92026 | 30997 ft | 512 kts | 101° |
| 2026-04-25 15:32 | 29.79908 | -71.83953 | 30999 ft | 512 kts | 101° |
| 2026-04-25 15:32 | 29.78590 | -71.75925 | 31002 ft | 512 kts | 101° |
| 2026-04-25 15:33 | 29.76611 | -71.63824 | 31001 ft | 512 kts | 101° |
| 2026-04-25 15:33 | 29.75450 | -71.55797 | 30989 ft | 505 kts | 94° |
| 2026-04-25 15:34 | 29.74857 | -71.47777 | 31005 ft | 503 kts | 103° |
| 2026-04-25 15:34 | 29.72949 | -71.41475 | 31001 ft | 500 kts | 118° |
| 2026-04-25 15:35 | 29.67725 | -71.29745 | 31011 ft | 497 kts | 109° |
| 2026-04-25 15:36 | 29.65801 | -71.18001 | 31000 ft | 498 kts | 96° |
| 2026-04-25 15:36 | 29.65546 | -71.10096 | 31009 ft | 498 kts | 90° |
| 2026-04-25 15:37 | 29.65504 | -71.02084 | 31002 ft | 499 kts | 90° |
| 2026-04-25 15:37 | 29.65427 | -70.94149 | 31000 ft | 499 kts | 91° |
| 2026-04-25 15:38 | 29.65293 | -70.86125 | 31003 ft | 499 kts | 91° |
| 2026-04-25 15:38 | 29.65135 | -70.78177 | 30997 ft | 499 kts | 91° |
| 2026-04-25 15:39 | 29.64969 | -70.70166 | 31002 ft | 499 kts | 91° |
| 2026-04-25 15:39 | 29.64806 | -70.62382 | 31002 ft | 499 kts | 91° |
| 2026-04-25 15:40 | 29.64665 | -70.55735 | 31002 ft | 499 kts | 91° |
| 2026-04-25 15:40 | 29.64463 | -70.46458 | 30997 ft | 499 kts | 91° |
| 2026-04-25 15:41 | 29.64283 | -70.38470 | 31005 ft | 499 kts | 91° |
| 2026-04-25 15:41 | 29.64099 | -70.30493 | 30994 ft | 499 kts | 91° |
| 2026-04-25 15:42 | 29.63911 | -70.22556 | 31003 ft | 499 kts | 91° |
| 2026-04-25 15:42 | 29.63717 | -70.14578 | 31003 ft | 498 kts | 91° |
| 2026-04-25 15:43 | 29.63520 | -70.06636 | 31000 ft | 498 kts | 91° |
| 2026-04-25 15:43 | 29.63316 | -69.98661 | 31002 ft | 498 kts | 91° |
| 2026-04-25 15:44 | 29.63108 | -69.90673 | 31003 ft | 499 kts | 92° |
| 2026-04-25 15:44 | 29.62896 | -69.82735 | 31003 ft | 499 kts | 92° |
| 2026-04-25 15:45 | 29.62678 | -69.74740 | 31004 ft | 499 kts | 92° |
| 2026-04-25 15:45 | 29.62493 | -69.68093 | 31003 ft | 499 kts | 92° |
| 2026-04-25 15:46 | 29.62214 | -69.58264 | 31001 ft | 499 kts | 92° |
| 2026-04-25 15:46 | 29.61982 | -69.50302 | 30997 ft | 498 kts | 92° |
| 2026-04-25 15:47 | 29.61745 | -69.42319 | 31003 ft | 498 kts | 92° |
| 2026-04-25 15:47 | 29.61504 | -69.34381 | 31000 ft | 498 kts | 92° |
| 2026-04-25 15:48 | 29.61257 | -69.26404 | 31000 ft | 498 kts | 92° |
| 2026-04-25 15:48 | 29.61006 | -69.18438 | 30997 ft | 498 kts | 92° |
| 2026-04-25 15:49 | 29.60752 | -69.10504 | 31003 ft | 498 kts | 92° |
| 2026-04-25 15:49 | 29.60508 | -69.03060 | 31003 ft | 498 kts | 92° |
| 2026-04-25 15:50 | 29.60288 | -68.96431 | 30996 ft | 498 kts | 92° |
| 2026-04-25 15:50 | 29.60020 | -68.88489 | 31002 ft | 499 kts | 92° |
| 2026-04-25 15:51 | 29.59791 | -68.81815 | 31003 ft | 499 kts | 92° |
| 2026-04-25 15:51 | 29.59468 | -68.72564 | 31003 ft | 499 kts | 92° |
| 2026-04-25 15:52 | 29.59185 | -68.64598 | 31002 ft | 499 kts | 92° |
| 2026-04-25 15:52 | 29.58914 | -68.57098 | 31003 ft | 498 kts | 92° |
| 2026-04-25 15:53 | 29.58622 | -68.49140 | 31003 ft | 498 kts | 92° |
| 2026-04-25 15:53 | 29.58330 | -68.41181 | 31002 ft | 498 kts | 92° |
| 2026-04-25 15:54 | 29.58033 | -68.33227 | 31002 ft | 498 kts | 92° |
| 2026-04-25 15:54 | 29.57729 | -68.25273 | 31003 ft | 498 kts | 92° |
| 2026-04-25 15:55 | 29.57417 | -68.17322 | 31007 ft | 498 kts | 92° |
| 2026-04-25 15:55 | 29.57101 | -68.09359 | 30999 ft | 499 kts | 92° |
| 2026-04-25 15:56 | 29.56781 | -68.01450 | 30997 ft | 499 kts | 92° |
| 2026-04-25 15:56 | 29.56456 | -67.93496 | 31002 ft | 498 kts | 92° |
| 2026-04-25 15:57 | 29.56126 | -67.85552 | 30999 ft | 498 kts | 93° |
| 2026-04-25 15:57 | 29.55791 | -67.77595 | 31002 ft | 498 kts | 93° |
| 2026-04-25 15:58 | 29.55451 | -67.69645 | 31002 ft | 498 kts | 93° |
| 2026-04-25 15:58 | 29.55107 | -67.61701 | 31003 ft | 498 kts | 93° |
| 2026-04-25 15:59 | 29.54759 | -67.53759 | 30999 ft | 498 kts | 93° |
| 2026-04-25 15:59 | 29.54404 | -67.45800 | 31002 ft | 498 kts | 93° |
| 2026-04-25 16:00 | 29.54107 | -67.39192 | 31003 ft | 498 kts | 93° |
| 2026-04-25 16:00 | 29.53682 | -67.29900 | 31005 ft | 499 kts | 93° |
| 2026-04-25 16:01 | 29.53314 | -67.21947 | 31001 ft | 499 kts | 93° |
| 2026-04-25 16:01 | 29.52941 | -67.13986 | 31004 ft | 499 kts | 93° |
| 2026-04-25 16:02 | 29.52563 | -67.06045 | 30998 ft | 498 kts | 93° |
| 2026-04-25 16:02 | 29.52181 | -66.98100 | 31003 ft | 498 kts | 93° |
| 2026-04-25 16:03 | 29.51795 | -66.90157 | 30993 ft | 498 kts | 93° |
| 2026-04-25 16:03 | 29.51403 | -66.82218 | 31001 ft | 498 kts | 93° |
| 2026-04-25 16:04 | 29.51007 | -66.74288 | 31002 ft | 498 kts | 93° |
| 2026-04-25 16:04 | 29.50607 | -66.66357 | 31002 ft | 498 kts | 93° |
| 2026-04-25 16:05 | 29.50202 | -66.58431 | 31002 ft | 498 kts | 93° |
| 2026-04-25 16:06 | 29.49585 | -66.46528 | 31007 ft | 498 kts | 94° |
| 2026-04-25 16:06 | 29.49170 | -66.38639 | 30994 ft | 498 kts | 94° |
| 2026-04-25 16:07 | 29.48748 | -66.30705 | 31003 ft | 498 kts | 94° |
| 2026-04-25 16:07 | 29.48322 | -66.22770 | 30999 ft | 498 kts | 94° |
| 2026-04-25 16:08 | 29.47890 | -66.14838 | 30999 ft | 498 kts | 94° |
| 2026-04-25 16:08 | 29.47454 | -66.06896 | 31003 ft | 498 kts | 94° |
| 2026-04-25 16:09 | 29.47013 | -65.98964 | 31000 ft | 498 kts | 94° |
| 2026-04-25 16:09 | 29.46568 | -65.91038 | 30997 ft | 498 kts | 94° |
| 2026-04-25 16:10 | 29.46118 | -65.83107 | 31000 ft | 498 kts | 94° |
| 2026-04-25 16:10 | 29.45663 | -65.75179 | 31003 ft | 498 kts | 94° |
| 2026-04-25 16:11 | 29.45204 | -65.67254 | 31004 ft | 498 kts | 94° |
| 2026-04-25 16:11 | 29.44747 | -65.59456 | 30999 ft | 498 kts | 94° |
| 2026-04-25 16:12 | 29.44278 | -65.51524 | 31003 ft | 498 kts | 94° |
| 2026-04-25 16:12 | 29.43804 | -65.43598 | 30999 ft | 498 kts | 94° |
| 2026-04-25 16:13 | 29.43326 | -65.35668 | 30996 ft | 498 kts | 94° |
| 2026-04-25 16:13 | 29.42865 | -65.28109 | 31001 ft | 498 kts | 94° |
| 2026-04-25 16:14 | 29.42378 | -65.20183 | 31003 ft | 498 kts | 94° |
| 2026-04-25 16:14 | 29.41885 | -65.12253 | 30997 ft | 498 kts | 94° |
| 2026-04-25 16:15 | 29.41389 | -65.04336 | 31002 ft | 498 kts | 94° |
| 2026-04-25 16:15 | 29.40891 | -64.96466 | 31000 ft | 498 kts | 94° |
| 2026-04-25 16:16 | 29.40384 | -64.88546 | 31003 ft | 498 kts | 94° |
| 2026-04-25 16:16 | 29.39874 | -64.80631 | 31003 ft | 498 kts | 94° |
| 2026-04-25 16:17 | 29.39358 | -64.72710 | 31002 ft | 498 kts | 94° |
| 2026-04-25 16:17 | 29.38839 | -64.64796 | 30997 ft | 498 kts | 94° |
| 2026-04-25 16:18 | 29.38313 | -64.56873 | 31003 ft | 498 kts | 94° |
| 2026-04-25 16:18 | 29.37783 | -64.48955 | 31000 ft | 498 kts | 94° |
| 2026-04-25 16:19 | 29.37250 | -64.41049 | 30996 ft | 498 kts | 95° |
| 2026-04-25 16:19 | 29.36715 | -64.33187 | 31003 ft | 498 kts | 95° |
| 2026-04-25 16:20 | 29.35899 | -64.21322 | 31001 ft | 498 kts | 95° |
| 2026-04-25 16:21 | 29.35072 | -64.09463 | 31005 ft | 498 kts | 95° |
| 2026-04-25 16:21 | 29.34514 | -64.01546 | 30996 ft | 498 kts | 95° |
| 2026-04-25 16:22 | 29.33952 | -63.93637 | 31003 ft | 498 kts | 95° |
| 2026-04-25 16:22 | 29.33385 | -63.85729 | 31003 ft | 498 kts | 95° |
| 2026-04-25 16:23 | 29.32814 | -63.77826 | 30997 ft | 498 kts | 95° |
| 2026-04-25 16:23 | 29.32238 | -63.69919 | 30996 ft | 498 kts | 95° |
| 2026-04-25 16:24 | 29.31657 | -63.62015 | 31003 ft | 498 kts | 95° |
| 2026-04-25 16:24 | 29.31073 | -63.54116 | 31003 ft | 498 kts | 95° |
| 2026-04-25 16:25 | 29.30483 | -63.46221 | 31000 ft | 498 kts | 95° |
| 2026-04-25 16:25 | 29.29888 | -63.38313 | 31002 ft | 498 kts | 95° |
| 2026-04-25 16:26 | 29.29292 | -63.30457 | 31003 ft | 497 kts | 95° |
| 2026-04-25 16:26 | 29.28689 | -63.22568 | 31010 ft | 498 kts | 95° |
| 2026-04-25 16:26 | 29.28384 | -63.18599 | 31216 ft | 501 kts | 95° |
| 2026-04-25 16:27 | 29.28077 | -63.14622 | 31543 ft | 502 kts | 95° |
| 2026-04-25 16:27 | 29.27769 | -63.10641 | 31865 ft | 503 kts | 95° |
| 2026-04-25 16:27 | 29.27458 | -63.06641 | 32138 ft | 504 kts | 95° |
| 2026-04-25 16:27 | 29.27144 | -63.02630 | 32297 ft | 506 kts | 95° |
| 2026-04-25 16:28 | 29.26831 | -62.98628 | 32265 ft | 503 kts | 95° |
| 2026-04-25 16:28 | 29.26518 | -62.94654 | 32485 ft | 500 kts | 95° |
| 2026-04-25 16:28 | 29.26206 | -62.90698 | 32738 ft | 497 kts | 95° |
| 2026-04-25 16:28 | 29.25893 | -62.86760 | 32885 ft | 498 kts | 95° |
| 2026-04-25 16:29 | 29.25578 | -62.82796 | 32942 ft | 501 kts | 95° |
| 2026-04-25 16:29 | 29.24940 | -62.74829 | 33000 ft | 502 kts | 95° |
| 2026-04-25 16:30 | 29.24298 | -62.66873 | 33001 ft | 500 kts | 95° |
| 2026-04-25 16:30 | 29.23654 | -62.58945 | 33001 ft | 499 kts | 95° |
| 2026-04-25 16:31 | 29.23007 | -62.51033 | 33001 ft | 499 kts | 95° |
| 2026-04-25 16:31 | 29.22355 | -62.43131 | 33002 ft | 499 kts | 95° |
| 2026-04-25 16:32 | 29.21699 | -62.35233 | 33003 ft | 499 kts | 95° |
| 2026-04-25 16:32 | 29.21037 | -62.27317 | 33002 ft | 500 kts | 96° |
| 2026-04-25 16:33 | 29.20370 | -62.19392 | 33001 ft | 500 kts | 96° |
| 2026-04-25 16:33 | 29.19811 | -62.12802 | 33001 ft | 501 kts | 96° |
| 2026-04-25 16:34 | 29.19134 | -62.04866 | 33001 ft | 501 kts | 96° |
| 2026-04-25 16:34 | 29.18452 | -61.96930 | 33000 ft | 501 kts | 96° |
| 2026-04-25 16:35 | 29.17765 | -61.88993 | 33001 ft | 501 kts | 96° |
| 2026-04-25 16:35 | 29.17073 | -61.81057 | 33000 ft | 501 kts | 96° |
| 2026-04-25 16:36 | 29.16376 | -61.73118 | 33002 ft | 501 kts | 96° |
| 2026-04-25 16:36 | 29.15677 | -61.65192 | 33001 ft | 501 kts | 96° |
| 2026-04-25 16:37 | 29.14972 | -61.57271 | 33001 ft | 500 kts | 96° |
| 2026-04-25 16:37 | 29.14263 | -61.49352 | 33000 ft | 500 kts | 96° |
| 2026-04-25 16:38 | 29.13553 | -61.41477 | 33002 ft | 500 kts | 96° |
| 2026-04-25 16:38 | 29.12834 | -61.33561 | 33002 ft | 500 kts | 96° |
| 2026-04-25 16:39 | 29.12111 | -61.25640 | 32999 ft | 500 kts | 96° |
| 2026-04-25 16:39 | 29.11383 | -61.17727 | 33001 ft | 500 kts | 96° |
| 2026-04-25 16:40 | 29.10651 | -61.09812 | 33000 ft | 500 kts | 96° |
| 2026-04-25 16:40 | 29.09914 | -61.01898 | 33001 ft | 500 kts | 96° |
| 2026-04-25 16:41 | 29.09172 | -60.93988 | 33002 ft | 500 kts | 96° |
| 2026-04-25 16:41 | 29.08050 | -60.82112 | 33003 ft | 501 kts | 96° |
| 2026-04-25 16:42 | 29.07296 | -60.74193 | 32995 ft | 501 kts | 96° |
| 2026-04-25 16:42 | 29.06537 | -60.66277 | 33001 ft | 501 kts | 96° |
| 2026-04-25 16:43 | 29.05775 | -60.58368 | 33000 ft | 500 kts | 96° |
| 2026-04-25 16:43 | 29.05008 | -60.50465 | 33001 ft | 500 kts | 96° |
| 2026-04-25 16:44 | 29.04236 | -60.42565 | 33002 ft | 500 kts | 96° |
| 2026-04-25 16:44 | 29.03460 | -60.34666 | 33001 ft | 500 kts | 96° |
| 2026-04-25 16:45 | 29.02679 | -60.26766 | 33000 ft | 500 kts | 96° |
| 2026-04-25 16:45 | 29.01894 | -60.18864 | 33001 ft | 500 kts | 97° |
| 2026-04-25 16:46 | 29.01105 | -60.10970 | 33001 ft | 500 kts | 97° |
| 2026-04-25 16:46 | 29.00445 | -60.04408 | 33000 ft | 500 kts | 97° |
| 2026-04-25 16:47 | 28.99951 | -59.95140 | 33005 ft | 500 kts | 89° |
| 2026-04-25 16:47 | 29.00071 | -59.87195 | 33003 ft | 500 kts | 89° |
| 2026-04-25 16:48 | 29.00199 | -59.79245 | 33000 ft | 501 kts | 89° |
| 2026-04-25 16:48 | 29.00291 | -59.71293 | 33004 ft | 501 kts | 89° |
| 2026-04-25 16:49 | 29.00360 | -59.63325 | 33002 ft | 501 kts | 89° |
| 2026-04-25 16:49 | 29.00422 | -59.55362 | 33000 ft | 501 kts | 89° |
| 2026-04-25 16:50 | 29.00480 | -59.47407 | 33000 ft | 501 kts | 89° |
| 2026-04-25 16:50 | 29.00535 | -59.39450 | 33001 ft | 501 kts | 89° |
| 2026-04-25 16:51 | 29.00585 | -59.31540 | 33000 ft | 501 kts | 89° |
| 2026-04-25 16:51 | 29.00624 | -59.24886 | 33003 ft | 500 kts | 89° |
| 2026-04-25 16:52 | 29.00672 | -59.15624 | 33000 ft | 500 kts | 90° |
| 2026-04-25 16:52 | 29.00708 | -59.07679 | 33002 ft | 500 kts | 90° |
| 2026-04-25 16:53 | 29.00754 | -58.95755 | 33003 ft | 500 kts | 90° |
| 2026-04-25 16:54 | 29.00778 | -58.87808 | 33001 ft | 500 kts | 90° |
| 2026-04-25 16:54 | 29.00798 | -58.79860 | 33002 ft | 500 kts | 90° |
| 2026-04-25 16:55 | 29.00813 | -58.71904 | 33004 ft | 501 kts | 90° |
| 2026-04-25 16:55 | 29.00824 | -58.63950 | 33004 ft | 501 kts | 90° |
| 2026-04-25 16:56 | 29.00830 | -58.55992 | 33002 ft | 501 kts | 90° |
| 2026-04-25 16:56 | 29.00831 | -58.48031 | 32998 ft | 501 kts | 90° |
| 2026-04-25 16:57 | 29.00828 | -58.40077 | 33001 ft | 501 kts | 90° |
| 2026-04-25 16:57 | 29.00820 | -58.32117 | 33000 ft | 501 kts | 90° |
| 2026-04-25 16:58 | 29.00807 | -58.24162 | 33002 ft | 500 kts | 90° |
| 2026-04-25 16:58 | 29.00789 | -58.16212 | 33002 ft | 501 kts | 90° |
| 2026-04-25 16:59 | 29.00767 | -58.08263 | 32999 ft | 500 kts | 90° |
| 2026-04-25 16:59 | 29.00740 | -58.00315 | 33003 ft | 500 kts | 90° |
| 2026-04-25 17:00 | 29.00709 | -57.92365 | 33002 ft | 500 kts | 90° |
| 2026-04-25 17:00 | 29.00672 | -57.84419 | 32999 ft | 500 kts | 90° |
| 2026-04-25 17:01 | 29.00631 | -57.76460 | 33003 ft | 501 kts | 90° |
| 2026-04-25 17:01 | 29.00586 | -57.68504 | 32997 ft | 501 kts | 90° |
| 2026-04-25 17:02 | 29.00536 | -57.60553 | 33003 ft | 501 kts | 90° |
| 2026-04-25 17:02 | 29.00481 | -57.52604 | 33002 ft | 501 kts | 90° |
| 2026-04-25 17:03 | 29.00421 | -57.44652 | 33003 ft | 501 kts | 90° |
| 2026-04-25 17:03 | 29.00357 | -57.36697 | 32998 ft | 501 kts | 90° |
| 2026-04-25 17:04 | 29.00288 | -57.28737 | 33000 ft | 501 kts | 90° |
| 2026-04-25 17:04 | 29.00214 | -57.20790 | 33002 ft | 501 kts | 90° |
| 2026-04-25 17:05 | 29.00136 | -57.12893 | 33002 ft | 500 kts | 90° |
| 2026-04-25 17:05 | 29.00011 | -57.00965 | 33000 ft | 500 kts | 91° |
| 2026-04-25 17:06 | 29.00066 | -56.93015 | 33001 ft | 500 kts | 88° |
| 2026-04-25 17:06 | 29.00314 | -56.85064 | 33001 ft | 500 kts | 88° |
| 2026-04-25 17:07 | 29.00561 | -56.77122 | 33002 ft | 501 kts | 88° |
| 2026-04-25 17:07 | 29.00769 | -56.69164 | 33003 ft | 501 kts | 88° |
| 2026-04-25 17:08 | 29.00954 | -56.61211 | 33000 ft | 501 kts | 88° |
| 2026-04-25 17:08 | 29.01132 | -56.53259 | 33001 ft | 501 kts | 88° |
| 2026-04-25 17:09 | 29.01306 | -56.45361 | 33001 ft | 501 kts | 88° |
| 2026-04-25 17:09 | 29.01477 | -56.37401 | 33000 ft | 501 kts | 88° |
| 2026-04-25 17:10 | 29.01644 | -56.29453 | 33003 ft | 501 kts | 89° |
| 2026-04-25 17:10 | 29.01807 | -56.21490 | 32999 ft | 501 kts | 89° |
| 2026-04-25 17:11 | 29.01965 | -56.13539 | 33003 ft | 501 kts | 89° |
| 2026-04-25 17:11 | 29.02117 | -56.05587 | 33001 ft | 501 kts | 89° |
| 2026-04-25 17:12 | 29.02266 | -55.97632 | 33002 ft | 501 kts | 89° |
| 2026-04-25 17:12 | 29.02409 | -55.89681 | 33001 ft | 501 kts | 89° |
| 2026-04-25 17:13 | 29.02503 | -55.84360 | 33001 ft | 501 kts | 89° |
| 2026-04-25 17:13 | 29.02682 | -55.73772 | 33000 ft | 500 kts | 89° |
| 2026-04-25 17:14 | 29.02812 | -55.65827 | 33003 ft | 500 kts | 89° |
| 2026-04-25 17:14 | 29.02937 | -55.57875 | 32999 ft | 501 kts | 89° |
| 2026-04-25 17:15 | 29.03057 | -55.49920 | 33003 ft | 501 kts | 89° |
| 2026-04-25 17:15 | 29.03153 | -55.43314 | 33002 ft | 501 kts | 89° |
| 2026-04-25 17:16 | 29.03264 | -55.35363 | 33000 ft | 500 kts | 89° |
| 2026-04-25 17:16 | 29.03371 | -55.27409 | 33002 ft | 500 kts | 89° |
| 2026-04-25 17:17 | 29.03473 | -55.19453 | 33000 ft | 500 kts | 89° |
| 2026-04-25 17:17 | 29.03571 | -55.11502 | 33003 ft | 501 kts | 89° |
| 2026-04-25 17:18 | 29.03664 | -55.03548 | 33006 ft | 501 kts | 89° |
| 2026-04-25 17:18 | 29.03752 | -54.95590 | 32995 ft | 501 kts | 89° |
| 2026-04-25 17:19 | 29.03835 | -54.87631 | 33001 ft | 501 kts | 89° |
| 2026-04-25 17:19 | 29.03914 | -54.79672 | 33001 ft | 501 kts | 89° |
| 2026-04-25 17:20 | 29.03988 | -54.71722 | 33002 ft | 500 kts | 89° |
| 2026-04-25 17:20 | 29.04058 | -54.63765 | 33000 ft | 500 kts | 89° |
| 2026-04-25 17:21 | 29.04122 | -54.55869 | 33000 ft | 500 kts | 89° |
| 2026-04-25 17:21 | 29.04182 | -54.47920 | 33000 ft | 500 kts | 89° |
| 2026-04-25 17:22 | 29.04229 | -54.41250 | 33000 ft | 500 kts | 89° |
| 2026-04-25 17:22 | 29.04288 | -54.32009 | 33001 ft | 500 kts | 89° |
| 2026-04-25 17:23 | 29.04334 | -54.24052 | 33001 ft | 501 kts | 89° |
| 2026-04-25 17:23 | 29.04375 | -54.16095 | 33004 ft | 501 kts | 90° |
| 2026-04-25 17:24 | 29.04412 | -54.08129 | 32998 ft | 501 kts | 90° |
| 2026-04-25 17:24 | 29.04444 | -54.00165 | 33002 ft | 501 kts | 90° |
| 2026-04-25 17:25 | 29.04471 | -53.92204 | 33000 ft | 501 kts | 90° |
| 2026-04-25 17:25 | 29.04493 | -53.84305 | 33003 ft | 501 kts | 90° |
| 2026-04-25 17:26 | 29.04511 | -53.76353 | 33000 ft | 500 kts | 90° |
| 2026-04-25 17:26 | 29.04524 | -53.68402 | 33004 ft | 500 kts | 90° |
| 2026-04-25 17:27 | 29.04533 | -53.60444 | 33000 ft | 501 kts | 90° |
| 2026-04-25 17:27 | 29.04536 | -53.53837 | 33001 ft | 500 kts | 90° |
| 2026-04-25 17:28 | 29.04536 | -53.44537 | 33002 ft | 501 kts | 90° |
| 2026-04-25 17:28 | 29.04530 | -53.36580 | 33002 ft | 501 kts | 90° |
| 2026-04-25 17:29 | 29.04520 | -53.28625 | 33000 ft | 501 kts | 90° |
| 2026-04-25 17:29 | 29.04505 | -53.20670 | 33002 ft | 501 kts | 90° |
| 2026-04-25 17:30 | 29.04485 | -53.12699 | 32999 ft | 501 kts | 90° |
| 2026-04-25 17:30 | 29.04461 | -53.04743 | 33002 ft | 501 kts | 90° |
| 2026-04-25 17:31 | 29.04432 | -52.96843 | 33000 ft | 501 kts | 90° |
| 2026-04-25 17:31 | 29.04399 | -52.88885 | 33001 ft | 501 kts | 90° |
| 2026-04-25 17:32 | 29.04360 | -52.80927 | 33001 ft | 501 kts | 90° |
| 2026-04-25 17:32 | 29.04317 | -52.72972 | 33001 ft | 501 kts | 90° |
| 2026-04-25 17:33 | 29.04269 | -52.65013 | 33002 ft | 501 kts | 90° |
| 2026-04-25 17:33 | 29.04217 | -52.57058 | 33004 ft | 500 kts | 90° |
| 2026-04-25 17:34 | 29.04160 | -52.49137 | 33115 ft | 499 kts | 90° |
| 2026-04-25 17:34 | 29.04099 | -52.41285 | 33571 ft | 496 kts | 90° |
| 2026-04-25 17:35 | 29.04067 | -52.37353 | 33966 ft | 494 kts | 90° |
| 2026-04-25 17:35 | 29.04033 | -52.33422 | 34224 ft | 495 kts | 90° |
| 2026-04-25 17:35 | 29.03999 | -52.29475 | 34406 ft | 498 kts | 90° |
| 2026-04-25 17:35 | 29.03963 | -52.25507 | 34580 ft | 501 kts | 90° |
| 2026-04-25 17:36 | 29.03925 | -52.21521 | 34756 ft | 502 kts | 90° |
| 2026-04-25 17:36 | 29.03887 | -52.17515 | 34915 ft | 505 kts | 90° |
| 2026-04-25 17:36 | 29.03805 | -52.09455 | 35007 ft | 508 kts | 90° |
| 2026-04-25 17:37 | 29.03719 | -52.01406 | 35000 ft | 504 kts | 91° |
| 2026-04-25 17:37 | 29.03630 | -51.93506 | 34984 ft | 489 kts | 91° |
| 2026-04-25 17:38 | 29.03554 | -51.87091 | 34996 ft | 485 kts | 91° |
| 2026-04-25 17:38 | 29.03442 | -51.78086 | 35008 ft | 485 kts | 91° |
| 2026-04-25 17:39 | 29.03342 | -51.70366 | 35006 ft | 486 kts | 91° |
| 2026-04-25 17:39 | 29.03237 | -51.62694 | 34998 ft | 486 kts | 91° |
| 2026-04-25 17:40 | 29.03127 | -51.54920 | 35007 ft | 486 kts | 91° |
| 2026-04-25 17:40 | 29.03013 | -51.47193 | 35008 ft | 487 kts | 91° |
| 2026-04-25 17:41 | 29.02896 | -51.39510 | 34998 ft | 487 kts | 91° |
| 2026-04-25 17:41 | 29.02773 | -51.31778 | 35004 ft | 487 kts | 91° |
| 2026-04-25 17:42 | 29.02645 | -51.24040 | 34999 ft | 487 kts | 91° |
| 2026-04-25 17:42 | 29.02514 | -51.16309 | 35002 ft | 487 kts | 91° |
| 2026-04-25 17:43 | 29.02378 | -51.08581 | 35005 ft | 486 kts | 91° |
| 2026-04-25 17:43 | 29.02238 | -51.00858 | 35004 ft | 486 kts | 91° |
| 2026-04-25 17:44 | 29.02093 | -50.93138 | 35007 ft | 485 kts | 91° |
| 2026-04-25 17:44 | 29.01944 | -50.85431 | 34996 ft | 485 kts | 91° |
| 2026-04-25 17:45 | 29.01843 | -50.80322 | 35002 ft | 485 kts | 91° |
| 2026-04-25 17:45 | 29.01634 | -50.70060 | 34996 ft | 485 kts | 91° |
| 2026-04-25 17:46 | 29.01472 | -50.62358 | 35006 ft | 485 kts | 91° |
| 2026-04-25 17:46 | 29.01306 | -50.54649 | 34999 ft | 485 kts | 91° |
| 2026-04-25 17:47 | 29.01135 | -50.46941 | 35001 ft | 485 kts | 91° |
| 2026-04-25 17:47 | 29.00959 | -50.39228 | 34997 ft | 485 kts | 91° |
| 2026-04-25 17:48 | 29.00688 | -50.27663 | 35003 ft | 486 kts | 91° |
| 2026-04-25 17:49 | 29.00502 | -50.19948 | 35003 ft | 486 kts | 91° |
| 2026-04-25 17:49 | 29.00311 | -50.12239 | 35005 ft | 486 kts | 91° |
| 2026-04-25 17:50 | 29.00117 | -50.04533 | 34996 ft | 486 kts | 91° |
| 2026-04-25 17:50 | 28.99958 | -49.96822 | 35003 ft | 485 kts | 90° |
| 2026-04-25 17:51 | 29.00088 | -49.89114 | 34995 ft | 485 kts | 88° |
| 2026-04-25 17:51 | 29.00293 | -49.81407 | 35003 ft | 485 kts | 88° |
| 2026-04-25 17:52 | 29.00460 | -49.73700 | 35005 ft | 485 kts | 89° |
| 2026-04-25 17:52 | 29.00592 | -49.65997 | 34995 ft | 485 kts | 89° |
| 2026-04-25 17:53 | 29.00710 | -49.58283 | 35006 ft | 485 kts | 89° |
| 2026-04-25 17:53 | 29.00824 | -49.50619 | 35004 ft | 485 kts | 89° |
| 2026-04-25 17:54 | 29.00935 | -49.42914 | 35003 ft | 485 kts | 89° |
| 2026-04-25 17:54 | 29.01043 | -49.35209 | 35007 ft | 485 kts | 89° |
| 2026-04-25 17:55 | 29.01147 | -49.27502 | 34997 ft | 485 kts | 89° |
| 2026-04-25 17:55 | 29.01246 | -49.19781 | 34994 ft | 485 kts | 89° |
| 2026-04-25 17:56 | 29.01341 | -49.12073 | 34996 ft | 485 kts | 89° |
| 2026-04-25 17:56 | 29.01406 | -49.04368 | 35007 ft | 485 kts | 89° |
| 2026-04-25 17:57 | 29.01501 | -48.96719 | 35006 ft | 485 kts | 89° |
| 2026-04-25 17:57 | 29.01595 | -48.89015 | 34996 ft | 485 kts | 89° |
| 2026-04-25 17:58 | 29.01676 | -48.81313 | 35007 ft | 485 kts | 89° |
| 2026-04-25 17:58 | 29.01749 | -48.73616 | 35006 ft | 485 kts | 89° |
| 2026-04-25 17:59 | 29.01816 | -48.65912 | 34996 ft | 485 kts | 89° |
| 2026-04-25 17:59 | 29.01880 | -48.58212 | 34997 ft | 485 kts | 89° |
| 2026-04-25 18:00 | 29.01939 | -48.50498 | 35005 ft | 485 kts | 89° |
| 2026-04-25 18:00 | 29.01994 | -48.42798 | 34997 ft | 485 kts | 89° |
| 2026-04-25 18:01 | 29.02045 | -48.35093 | 34997 ft | 485 kts | 89° |
| 2026-04-25 18:01 | 29.02091 | -48.27389 | 35005 ft | 485 kts | 89° |
| 2026-04-25 18:02 | 29.02133 | -48.19736 | 35001 ft | 485 kts | 90° |
| 2026-04-25 18:02 | 29.02171 | -48.12029 | 34996 ft | 485 kts | 90° |
| 2026-04-25 18:03 | 29.02204 | -48.04325 | 34996 ft | 485 kts | 90° |
| 2026-04-25 18:03 | 29.02233 | -47.96624 | 34998 ft | 485 kts | 90° |
| 2026-04-25 18:04 | 29.02257 | -47.88925 | 34998 ft | 485 kts | 90° |
| 2026-04-25 18:04 | 29.02277 | -47.81226 | 35003 ft | 485 kts | 90° |
| 2026-04-25 18:05 | 29.02293 | -47.73529 | 35005 ft | 484 kts | 90° |
| 2026-04-25 18:05 | 29.02304 | -47.65833 | 34996 ft | 484 kts | 90° |
| 2026-04-25 18:06 | 29.02310 | -47.59433 | 35010 ft | 484 kts | 90° |
| 2026-04-25 18:06 | 29.02313 | -47.51736 | 34995 ft | 484 kts | 90° |
| 2026-04-25 18:07 | 29.02312 | -47.44034 | 35007 ft | 484 kts | 89° |
| 2026-04-25 18:07 | 29.02326 | -47.36335 | 35005 ft | 484 kts | 90° |
| 2026-04-25 18:08 | 29.02301 | -47.28630 | 34997 ft | 484 kts | 90° |
| 2026-04-25 18:08 | 29.02278 | -47.20937 | 35007 ft | 484 kts | 90° |
| 2026-04-25 18:09 | 29.02260 | -47.13245 | 35002 ft | 484 kts | 90° |
| 2026-04-25 18:09 | 29.02239 | -47.05547 | 34996 ft | 484 kts | 90° |
| 2026-04-25 18:10 | 29.02212 | -46.97852 | 34996 ft | 484 kts | 90° |
| 2026-04-25 18:10 | 29.02181 | -46.90159 | 35007 ft | 484 kts | 90° |
| 2026-04-25 18:11 | 29.02144 | -46.82509 | 35004 ft | 484 kts | 90° |
| 2026-04-25 18:11 | 29.02104 | -46.74807 | 34996 ft | 484 kts | 90° |
| 2026-04-25 18:12 | 29.02059 | -46.67109 | 34997 ft | 484 kts | 90° |
| 2026-04-25 18:12 | 29.02009 | -46.59418 | 34997 ft | 484 kts | 90° |
| 2026-04-25 18:13 | 29.01955 | -46.51722 | 34996 ft | 484 kts | 90° |
| 2026-04-25 18:13 | 29.01897 | -46.44029 | 34999 ft | 484 kts | 90° |
| 2026-04-25 18:14 | 29.01802 | -46.32492 | 35008 ft | 484 kts | 90° |
| 2026-04-25 18:14 | 29.01733 | -46.24804 | 35002 ft | 484 kts | 90° |
| 2026-04-25 18:15 | 29.01660 | -46.17161 | 35003 ft | 484 kts | 90° |
| 2026-04-25 18:15 | 29.01582 | -46.09469 | 35000 ft | 484 kts | 91° |
| 2026-04-25 18:16 | 29.01500 | -46.01780 | 35005 ft | 484 kts | 91° |
| 2026-04-25 18:17 | 29.01368 | -45.90254 | 34996 ft | 484 kts | 91° |
| 2026-04-25 18:17 | 29.01275 | -45.82571 | 35005 ft | 484 kts | 91° |
| 2026-04-25 18:18 | 29.01178 | -45.74884 | 34997 ft | 484 kts | 91° |
| 2026-04-25 18:18 | 29.01076 | -45.67205 | 35004 ft | 484 kts | 91° |
| 2026-04-25 18:19 | 29.00969 | -45.59504 | 35006 ft | 484 kts | 91° |
| 2026-04-25 18:19 | 29.00860 | -45.51862 | 34996 ft | 484 kts | 91° |
| 2026-04-25 18:20 | 29.00745 | -45.44182 | 34996 ft | 484 kts | 91° |
| 2026-04-25 18:20 | 29.00625 | -45.36499 | 35006 ft | 484 kts | 91° |
| 2026-04-25 18:21 | 29.00502 | -45.28817 | 35003 ft | 484 kts | 91° |
| 2026-04-25 18:21 | 29.00374 | -45.21133 | 35000 ft | 484 kts | 91° |
| 2026-04-25 18:22 | 29.00242 | -45.13443 | 34998 ft | 484 kts | 91° |
| 2026-04-25 18:22 | 29.00103 | -45.05739 | 34995 ft | 484 kts | 92° |
| 2026-04-25 18:23 | 28.99215 | -44.98142 | 35005 ft | 483 kts | 103° |
| 2026-04-25 18:23 | 28.97180 | -44.90848 | 35005 ft | 482 kts | 111° |
| 2026-04-25 18:24 | 28.94843 | -44.83731 | 35002 ft | 482 kts | 111° |
| 2026-04-25 18:24 | 28.92493 | -44.76562 | 34998 ft | 482 kts | 111° |
| 2026-04-25 18:25 | 28.90167 | -44.69381 | 35006 ft | 482 kts | 111° |
| 2026-04-25 18:25 | 28.87853 | -44.62201 | 35002 ft | 482 kts | 111° |
| 2026-04-25 18:26 | 28.85535 | -44.55020 | 35003 ft | 482 kts | 111° |
| 2026-04-25 18:26 | 28.83212 | -44.47840 | 35001 ft | 482 kts | 111° |
| 2026-04-25 18:27 | 28.80885 | -44.40666 | 35007 ft | 483 kts | 111° |
| 2026-04-25 18:27 | 28.78551 | -44.33490 | 35000 ft | 483 kts | 111° |
| 2026-04-25 18:28 | 28.76230 | -44.26363 | 35006 ft | 483 kts | 111° |
| 2026-04-25 18:28 | 28.73889 | -44.19193 | 34999 ft | 483 kts | 111° |
| 2026-04-25 18:29 | 28.70372 | -44.08448 | 35006 ft | 482 kts | 111° |
| 2026-04-25 18:30 | 28.65670 | -43.94132 | 34995 ft | 483 kts | 111° |
| 2026-04-25 18:30 | 28.63315 | -43.86984 | 35001 ft | 482 kts | 111° |
| 2026-04-25 18:31 | 28.60955 | -43.79836 | 35001 ft | 482 kts | 111° |
| 2026-04-25 18:31 | 28.58594 | -43.72700 | 35001 ft | 482 kts | 111° |
| 2026-04-25 18:32 | 28.56227 | -43.65560 | 35001 ft | 482 kts | 111° |
| 2026-04-25 18:32 | 28.53856 | -43.58420 | 35003 ft | 482 kts | 111° |
| 2026-04-25 18:33 | 28.51525 | -43.51419 | 35004 ft | 483 kts | 111° |
| 2026-04-25 18:33 | 28.49118 | -43.44203 | 35013 ft | 493 kts | 111° |
| 2026-04-25 18:34 | 28.46677 | -43.36897 | 34998 ft | 494 kts | 111° |
| 2026-04-25 18:34 | 28.44248 | -43.29643 | 35003 ft | 494 kts | 111° |
| 2026-04-25 18:35 | 28.41805 | -43.22361 | 34998 ft | 493 kts | 111° |
| 2026-04-25 18:35 | 28.39362 | -43.15096 | 35003 ft | 492 kts | 111° |
| 2026-04-25 18:36 | 28.36918 | -43.07844 | 35000 ft | 491 kts | 111° |
| 2026-04-25 18:36 | 28.34475 | -43.00606 | 35001 ft | 491 kts | 111° |
| 2026-04-25 18:37 | 28.32032 | -42.93384 | 35000 ft | 490 kts | 111° |
| 2026-04-25 18:37 | 28.29583 | -42.86162 | 35002 ft | 490 kts | 111° |
| 2026-04-25 18:38 | 28.27132 | -42.78944 | 34996 ft | 490 kts | 111° |
| 2026-04-25 18:38 | 28.24676 | -42.71729 | 35006 ft | 490 kts | 110° |
| 2026-04-25 18:39 | 28.22225 | -42.64525 | 34999 ft | 490 kts | 112° |
| 2026-04-25 18:39 | 28.19759 | -42.57323 | 35006 ft | 490 kts | 112° |
| 2026-04-25 18:40 | 28.17290 | -42.50117 | 35009 ft | 491 kts | 112° |
| 2026-04-25 18:40 | 28.14813 | -42.42894 | 35002 ft | 491 kts | 112° |
| 2026-04-25 18:41 | 28.12334 | -42.35680 | 34995 ft | 491 kts | 112° |
| 2026-04-25 18:41 | 28.09849 | -42.28464 | 34999 ft | 492 kts | 112° |
| 2026-04-25 18:42 | 28.08188 | -42.23649 | 35010 ft | 500 kts | 112° |
| 2026-04-25 18:42 | 28.04756 | -42.13722 | 35006 ft | 508 kts | 112° |
| 2026-04-25 18:43 | 28.02194 | -42.06321 | 35000 ft | 508 kts | 112° |
| 2026-04-25 18:43 | 27.99522 | -41.98934 | 35004 ft | 506 kts | 117° |
| 2026-04-25 18:44 | 27.96169 | -41.91952 | 35006 ft | 503 kts | 120° |
| 2026-04-25 18:44 | 27.92727 | -41.85067 | 34996 ft | 502 kts | 120° |
| 2026-04-25 18:45 | 27.89317 | -41.78194 | 35005 ft | 501 kts | 120° |
| 2026-04-25 18:45 | 27.85931 | -41.71316 | 35004 ft | 500 kts | 120° |
| 2026-04-25 18:46 | 27.82553 | -41.64443 | 34985 ft | 500 kts | 120° |
| 2026-04-25 18:46 | 27.79175 | -41.57585 | 35006 ft | 500 kts | 120° |
| 2026-04-25 18:47 | 27.75790 | -41.50727 | 35000 ft | 500 kts | 120° |
| 2026-04-25 18:47 | 27.72401 | -41.43873 | 34996 ft | 500 kts | 120° |
| 2026-04-25 18:48 | 27.69004 | -41.37013 | 35003 ft | 501 kts | 120° |
| 2026-04-25 18:48 | 27.65623 | -41.30199 | 35002 ft | 501 kts | 120° |
| 2026-04-25 18:49 | 27.62212 | -41.23333 | 34894 ft | 499 kts | 121° |
| 2026-04-25 18:49 | 27.60467 | -41.19846 | 34103 ft | 506 kts | 120° |
| 2026-04-25 18:49 | 27.58763 | -41.16422 | 34425 ft | 498 kts | 120° |
| 2026-04-25 18:50 | 27.57078 | -41.13034 | 34663 ft | 496 kts | 120° |
| 2026-04-25 18:50 | 27.55383 | -41.09629 | 34812 ft | 499 kts | 120° |
| 2026-04-25 18:50 | 27.53678 | -41.06207 | 34913 ft | 503 kts | 120° |
| 2026-04-25 18:50 | 27.51956 | -41.02759 | 34981 ft | 507 kts | 120° |
| 2026-04-25 18:51 | 27.49634 | -40.98112 | 35002 ft | 510 kts | 120° |
| 2026-04-25 18:51 | 27.45051 | -40.88959 | 35000 ft | 499 kts | 120° |
| 2026-04-25 18:52 | 27.41636 | -40.82152 | 35006 ft | 499 kts | 120° |
| 2026-04-25 18:52 | 27.38245 | -40.75404 | 35003 ft | 498 kts | 120° |
| 2026-04-25 18:53 | 27.34826 | -40.68611 | 35004 ft | 499 kts | 120° |
| 2026-04-25 18:53 | 27.31403 | -40.61820 | 35003 ft | 500 kts | 120° |
| 2026-04-25 18:54 | 27.26250 | -40.51617 | 35006 ft | 501 kts | 120° |
| 2026-04-25 18:55 | 27.22801 | -40.44800 | 35005 ft | 502 kts | 120° |
| 2026-04-25 18:55 | 27.19908 | -40.39091 | 34996 ft | 502 kts | 120° |
| 2026-04-25 18:56 | 27.16442 | -40.32265 | 34996 ft | 503 kts | 120° |
| 2026-04-25 18:56 | 27.12976 | -40.25443 | 35004 ft | 503 kts | 120° |
| 2026-04-25 18:57 | 27.09527 | -40.18666 | 35001 ft | 503 kts | 121° |
| 2026-04-25 18:57 | 27.06051 | -40.11848 | 35005 ft | 503 kts | 121° |
| 2026-04-25 18:58 | 27.02576 | -40.05041 | 35002 ft | 503 kts | 121° |
| 2026-04-25 18:58 | 26.97446 | -39.94780 | 35002 ft | 502 kts | 118° |
| 2026-04-25 18:59 | 26.91022 | -39.80874 | 35004 ft | 502 kts | 118° |
| 2026-04-25 19:00 | 26.86184 | -39.70527 | 35002 ft | 502 kts | 118° |
| 2026-04-25 19:01 | 26.81299 | -39.60160 | 35002 ft | 502 kts | 118° |
| 2026-04-25 19:01 | 26.78042 | -39.53259 | 35001 ft | 502 kts | 118° |
| 2026-04-25 19:02 | 26.73144 | -39.42905 | 35002 ft | 502 kts | 118° |
| 2026-04-25 19:03 | 26.68793 | -39.33724 | 35000 ft | 502 kts | 118° |
| 2026-04-25 19:03 | 26.64965 | -39.25663 | 35004 ft | 502 kts | 118° |
| 2026-04-25 19:04 | 26.60051 | -39.15334 | 35000 ft | 502 kts | 119° |
| 2026-04-25 19:05 | 26.53483 | -39.01570 | 35004 ft | 502 kts | 119° |
| 2026-04-25 19:06 | 26.50194 | -38.94692 | 35004 ft | 502 kts | 119° |
| 2026-04-25 19:06 | 26.45276 | -38.84430 | 35002 ft | 502 kts | 119° |
| 2026-04-25 19:07 | 26.40325 | -38.74125 | 35004 ft | 502 kts | 119° |
| 2026-04-25 19:08 | 26.35370 | -38.63833 | 35001 ft | 502 kts | 119° |
| 2026-04-25 19:09 | 26.29309 | -38.51277 | 35001 ft | 502 kts | 119° |
| 2026-04-25 19:10 | 26.23778 | -38.39852 | 35005 ft | 502 kts | 119° |
| 2026-04-25 19:10 | 26.20460 | -38.33011 | 35001 ft | 502 kts | 119° |
| 2026-04-25 19:11 | 26.17134 | -38.26164 | 35003 ft | 502 kts | 119° |
| 2026-04-25 19:11 | 26.13807 | -38.19329 | 35009 ft | 502 kts | 119° |
| 2026-04-25 19:12 | 26.10499 | -38.12544 | 35005 ft | 502 kts | 119° |
| 2026-04-25 19:12 | 26.07169 | -38.05715 | 35004 ft | 502 kts | 119° |
| 2026-04-25 19:13 | 26.03832 | -37.98887 | 35001 ft | 502 kts | 119° |
| 2026-04-25 19:13 | 26.00496 | -37.92071 | 35000 ft | 502 kts | 119° |
| 2026-04-25 19:14 | 25.97155 | -37.85259 | 35002 ft | 502 kts | 119° |
| 2026-04-25 19:14 | 25.93813 | -37.78453 | 35001 ft | 502 kts | 119° |
| 2026-04-25 19:15 | 25.90466 | -37.71647 | 34992 ft | 502 kts | 119° |
| 2026-04-25 19:15 | 25.87137 | -37.64887 | 35002 ft | 502 kts | 120° |
| 2026-04-25 19:16 | 25.83789 | -37.58100 | 35004 ft | 502 kts | 120° |
| 2026-04-25 19:16 | 25.80433 | -37.51307 | 35004 ft | 502 kts | 120° |
| 2026-04-25 19:17 | 25.77076 | -37.44521 | 35004 ft | 502 kts | 120° |
| 2026-04-25 19:17 | 25.73711 | -37.37731 | 35001 ft | 502 kts | 120° |
| 2026-04-25 19:18 | 25.70345 | -37.30948 | 35000 ft | 502 kts | 120° |
| 2026-04-25 19:18 | 25.66974 | -37.24164 | 35004 ft | 502 kts | 120° |
| 2026-04-25 19:19 | 25.63605 | -37.17395 | 35002 ft | 502 kts | 120° |
| 2026-04-25 19:19 | 25.60254 | -37.10673 | 35002 ft | 502 kts | 120° |
| 2026-04-25 19:20 | 25.56874 | -37.03902 | 35002 ft | 502 kts | 120° |
| 2026-04-25 19:20 | 25.53492 | -36.97137 | 35004 ft | 502 kts | 120° |
| 2026-04-25 19:21 | 25.50105 | -36.90374 | 35002 ft | 503 kts | 120° |
| 2026-04-25 19:21 | 25.45485 | -36.81165 | 35013 ft | 517 kts | 120° |
| 2026-04-25 19:22 | 25.41977 | -36.74184 | 35006 ft | 520 kts | 120° |
| 2026-04-25 19:23 | 25.36706 | -36.63710 | 35005 ft | 518 kts | 120° |
| 2026-04-25 19:23 | 25.31472 | -36.53337 | 35000 ft | 516 kts | 120° |
| 2026-04-25 19:24 | 25.28066 | -36.46397 | 35005 ft | 512 kts | 120° |
| 2026-04-25 19:25 | 25.21040 | -36.32716 | 35001 ft | 512 kts | 120° |
| 2026-04-25 19:25 | 25.17547 | -36.25864 | 35001 ft | 512 kts | 120° |
| 2026-04-25 19:26 | 25.14046 | -36.19021 | 35012 ft | 511 kts | 120° |
| 2026-04-25 19:26 | 25.10568 | -36.12162 | 35001 ft | 512 kts | 120° |
| 2026-04-25 19:27 | 25.07672 | -36.06463 | 35006 ft | 513 kts | 120° |
| 2026-04-25 19:27 | 25.03604 | -35.98488 | 35002 ft | 513 kts | 120° |
| 2026-04-25 19:28 | 25.00070 | -35.91582 | 35005 ft | 514 kts | 120° |
| 2026-04-25 19:28 | 24.96579 | -35.84768 | 35002 ft | 514 kts | 120° |
| 2026-04-25 19:29 | 24.93061 | -35.77912 | 34997 ft | 514 kts | 120° |
| 2026-04-25 19:29 | 24.89535 | -35.71048 | 34998 ft | 514 kts | 120° |
| 2026-04-25 19:30 | 24.86011 | -35.64199 | 34999 ft | 514 kts | 120° |
| 2026-04-25 19:30 | 24.82483 | -35.57351 | 35003 ft | 514 kts | 120° |
| 2026-04-25 19:31 | 24.78954 | -35.50512 | 35003 ft | 514 kts | 120° |
| 2026-04-25 19:31 | 24.75423 | -35.43679 | 34986 ft | 514 kts | 120° |
| 2026-04-25 19:32 | 24.71886 | -35.36844 | 35005 ft | 514 kts | 120° |
| 2026-04-25 19:32 | 24.69544 | -35.32325 | 35001 ft | 513 kts | 120° |
| 2026-04-25 19:33 | 24.64810 | -35.23200 | 35000 ft | 513 kts | 120° |
| 2026-04-25 19:33 | 24.61271 | -35.16392 | 35004 ft | 513 kts | 121° |
| 2026-04-25 19:34 | 24.57752 | -35.09630 | 35002 ft | 513 kts | 121° |
| 2026-04-25 19:34 | 24.54207 | -35.02829 | 34999 ft | 513 kts | 121° |
| 2026-04-25 19:35 | 24.50655 | -34.96025 | 35007 ft | 513 kts | 121° |
| 2026-04-25 19:35 | 24.47102 | -34.89227 | 35004 ft | 513 kts | 121° |
| 2026-04-25 19:36 | 24.43546 | -34.82433 | 35002 ft | 513 kts | 121° |
| 2026-04-25 19:36 | 24.39985 | -34.75641 | 35004 ft | 513 kts | 121° |
| 2026-04-25 19:37 | 24.36423 | -34.68854 | 35000 ft | 513 kts | 121° |
| 2026-04-25 19:37 | 24.32880 | -34.62114 | 35003 ft | 513 kts | 121° |
| 2026-04-25 19:38 | 24.29310 | -34.55333 | 35003 ft | 513 kts | 121° |
| 2026-04-25 19:38 | 24.25738 | -34.48556 | 34997 ft | 513 kts | 121° |
| 2026-04-25 19:39 | 24.22161 | -34.41781 | 34994 ft | 513 kts | 121° |
| 2026-04-25 19:39 | 24.18585 | -34.35015 | 35004 ft | 513 kts | 121° |
| 2026-04-25 19:40 | 24.15002 | -34.28247 | 35001 ft | 513 kts | 121° |
| 2026-04-25 19:40 | 24.11419 | -34.21488 | 35002 ft | 513 kts | 121° |
| 2026-04-25 19:41 | 24.07829 | -34.14723 | 35002 ft | 513 kts | 121° |
| 2026-04-25 19:41 | 24.05453 | -34.10252 | 35003 ft | 513 kts | 121° |
| 2026-04-25 19:42 | 24.00646 | -34.01216 | 35002 ft | 513 kts | 121° |
| 2026-04-25 19:42 | 23.97053 | -33.94471 | 35003 ft | 513 kts | 121° |
| 2026-04-25 19:43 | 23.93478 | -33.87763 | 35001 ft | 513 kts | 121° |
| 2026-04-25 19:43 | 23.89885 | -33.81023 | 35000 ft | 513 kts | 121° |
| 2026-04-25 19:44 | 23.86291 | -33.74281 | 35002 ft | 513 kts | 121° |
| 2026-04-25 19:44 | 23.82700 | -33.67548 | 35003 ft | 513 kts | 121° |
| 2026-04-25 19:45 | 23.79106 | -33.60812 | 35003 ft | 513 kts | 121° |
| 2026-04-25 19:45 | 23.75508 | -33.54070 | 35004 ft | 513 kts | 121° |
| 2026-04-25 19:46 | 23.72500 | -33.48433 | 35004 ft | 513 kts | 121° |
| 2026-04-25 19:46 | 23.68928 | -33.41742 | 35001 ft | 513 kts | 121° |
| 2026-04-25 19:47 | 23.65332 | -33.35010 | 35004 ft | 513 kts | 121° |
| 2026-04-25 19:47 | 23.61738 | -33.28282 | 35004 ft | 513 kts | 121° |
| 2026-04-25 19:48 | 23.58140 | -33.21547 | 35000 ft | 513 kts | 121° |
| 2026-04-25 19:48 | 23.54545 | -33.14823 | 35002 ft | 513 kts | 121° |
| 2026-04-25 19:49 | 23.51557 | -33.09235 | 35000 ft | 513 kts | 121° |
| 2026-04-25 19:49 | 23.47093 | -33.01556 | 35001 ft | 513 kts | 124° |
| 2026-04-25 19:50 | 23.41178 | -32.91847 | 35002 ft | 513 kts | 124° |
| 2026-04-25 19:51 | 23.37294 | -32.85385 | 35000 ft | 513 kts | 124° |
| 2026-04-25 19:51 | 23.33407 | -32.78876 | 35003 ft | 513 kts | 124° |
| 2026-04-25 19:52 | 23.29521 | -32.72368 | 35004 ft | 513 kts | 124° |
| 2026-04-25 19:52 | 23.25626 | -32.65858 | 34993 ft | 513 kts | 124° |
| 2026-04-25 19:53 | 23.21729 | -32.59358 | 35001 ft | 513 kts | 124° |
| 2026-04-25 19:53 | 23.17833 | -32.52869 | 35001 ft | 513 kts | 124° |
| 2026-04-25 19:54 | 23.13928 | -32.46372 | 35002 ft | 513 kts | 124° |
| 2026-04-25 19:54 | 23.10052 | -32.39932 | 35001 ft | 513 kts | 124° |
| 2026-04-25 19:55 | 23.06144 | -32.33446 | 35000 ft | 513 kts | 124° |
| 2026-04-25 19:55 | 23.02235 | -32.26967 | 35004 ft | 513 kts | 124° |
| 2026-04-25 19:56 | 22.98324 | -32.20494 | 35002 ft | 513 kts | 124° |
| 2026-04-25 19:56 | 22.94410 | -32.14022 | 34997 ft | 513 kts | 124° |
| 2026-04-25 19:57 | 22.90491 | -32.07551 | 35002 ft | 513 kts | 124° |
| 2026-04-25 19:57 | 22.86569 | -32.01084 | 34999 ft | 513 kts | 124° |
| 2026-04-25 19:58 | 22.82673 | -31.94666 | 35002 ft | 513 kts | 124° |
| 2026-04-25 19:58 | 22.78747 | -31.88208 | 35000 ft | 513 kts | 124° |
| 2026-04-25 19:59 | 22.74822 | -31.81758 | 34999 ft | 513 kts | 124° |
| 2026-04-25 19:59 | 22.70888 | -31.75303 | 35002 ft | 513 kts | 124° |
| 2026-04-25 20:00 | 22.66952 | -31.68851 | 35008 ft | 516 kts | 124° |
| 2026-04-25 20:00 | 22.62953 | -31.62307 | 35009 ft | 525 kts | 124° |
| 2026-04-25 20:01 | 22.56909 | -31.52427 | 35003 ft | 525 kts | 124° |
| 2026-04-25 20:01 | 22.52879 | -31.45850 | 34985 ft | 524 kts | 124° |
| 2026-04-25 20:02 | 22.48883 | -31.39337 | 35004 ft | 523 kts | 124° |
| 2026-04-25 20:02 | 22.44860 | -31.32788 | 35001 ft | 522 kts | 124° |
| 2026-04-25 20:03 | 22.40843 | -31.26258 | 35003 ft | 521 kts | 124° |
| 2026-04-25 20:03 | 22.36825 | -31.19733 | 35004 ft | 521 kts | 124° |
| 2026-04-25 20:04 | 22.32809 | -31.13219 | 35001 ft | 521 kts | 124° |
| 2026-04-25 20:04 | 22.28791 | -31.06710 | 34999 ft | 521 kts | 124° |
| 2026-04-25 20:05 | 22.24767 | -31.00201 | 35002 ft | 521 kts | 124° |
| 2026-04-25 20:05 | 22.20740 | -30.93694 | 35001 ft | 521 kts | 124° |
| 2026-04-25 20:06 | 22.16713 | -30.87195 | 35004 ft | 521 kts | 124° |
| 2026-04-25 20:06 | 22.12702 | -30.80728 | 35001 ft | 521 kts | 124° |
| 2026-04-25 20:07 | 22.08665 | -30.74229 | 35001 ft | 521 kts | 124° |
| 2026-04-25 20:07 | 22.04623 | -30.67728 | 35002 ft | 522 kts | 124° |
| 2026-04-25 20:08 | 22.00580 | -30.61234 | 34991 ft | 522 kts | 125° |
| 2026-04-25 20:08 | 21.96529 | -30.54736 | 35001 ft | 522 kts | 125° |
| 2026-04-25 20:09 | 21.92508 | -30.48293 | 35002 ft | 522 kts | 125° |
| 2026-04-25 20:09 | 21.88459 | -30.41812 | 35004 ft | 522 kts | 125° |
| 2026-04-25 20:10 | 21.84405 | -30.35332 | 35004 ft | 522 kts | 125° |
| 2026-04-25 20:10 | 21.80349 | -30.28856 | 35001 ft | 522 kts | 125° |
| 2026-04-25 20:11 | 21.76290 | -30.22383 | 35001 ft | 522 kts | 125° |
| 2026-04-25 20:11 | 21.72229 | -30.15915 | 35001 ft | 522 kts | 125° |
| 2026-04-25 20:12 | 21.68164 | -30.09445 | 35002 ft | 522 kts | 125° |
| 2026-04-25 20:12 | 21.65471 | -30.05165 | 35004 ft | 521 kts | 125° |
| 2026-04-25 20:13 | 21.60028 | -29.96524 | 34998 ft | 521 kts | 125° |
| 2026-04-25 20:13 | 21.55988 | -29.90118 | 35002 ft | 521 kts | 125° |
| 2026-04-25 20:14 | 21.51920 | -29.83674 | 34997 ft | 521 kts | 125° |
| 2026-04-25 20:14 | 21.47827 | -29.77238 | 34986 ft | 521 kts | 126° |
| 2026-04-25 20:15 | 21.43637 | -29.70886 | 35003 ft | 521 kts | 126° |
| 2026-04-25 20:15 | 21.39420 | -29.64554 | 35001 ft | 521 kts | 126° |
| 2026-04-25 20:16 | 21.35215 | -29.58219 | 34997 ft | 521 kts | 126° |
| 2026-04-25 20:16 | 21.31012 | -29.51870 | 34997 ft | 521 kts | 126° |
| 2026-04-25 20:17 | 21.26817 | -29.45533 | 35004 ft | 521 kts | 126° |
| 2026-04-25 20:17 | 21.22613 | -29.39191 | 34999 ft | 521 kts | 126° |
| 2026-04-25 20:18 | 21.18411 | -29.32861 | 35001 ft | 521 kts | 126° |
| 2026-04-25 20:18 | 21.14205 | -29.26533 | 35000 ft | 521 kts | 126° |
| 2026-04-25 20:19 | 21.09997 | -29.20211 | 35004 ft | 521 kts | 126° |
| 2026-04-25 20:19 | 21.05788 | -29.13891 | 35001 ft | 521 kts | 126° |
| 2026-04-25 20:20 | 21.01574 | -29.07574 | 35004 ft | 521 kts | 126° |
| 2026-04-25 20:20 | 20.97358 | -29.01259 | 34998 ft | 521 kts | 126° |
| 2026-04-25 20:21 | 20.93167 | -28.94989 | 35004 ft | 521 kts | 126° |
| 2026-04-25 20:21 | 20.88968 | -28.88713 | 35002 ft | 521 kts | 127° |
| 2026-04-25 20:22 | 20.86144 | -28.84497 | 35004 ft | 521 kts | 127° |
| 2026-04-25 20:22 | 20.80516 | -28.76103 | 35002 ft | 521 kts | 127° |
| 2026-04-25 20:23 | 20.76289 | -28.69806 | 35004 ft | 521 kts | 127° |
| 2026-04-25 20:23 | 20.72086 | -28.63554 | 34997 ft | 521 kts | 127° |
| 2026-04-25 20:24 | 20.67856 | -28.57267 | 34998 ft | 521 kts | 127° |
| 2026-04-25 20:24 | 20.63621 | -28.50979 | 35004 ft | 521 kts | 127° |
| 2026-04-25 20:25 | 20.59385 | -28.44697 | 35004 ft | 521 kts | 127° |
| 2026-04-25 20:25 | 20.55149 | -28.38422 | 35001 ft | 521 kts | 127° |
| 2026-04-25 20:26 | 20.50906 | -28.32143 | 35001 ft | 521 kts | 127° |
| 2026-04-25 20:26 | 20.46661 | -28.25868 | 35001 ft | 521 kts | 127° |
| 2026-04-25 20:27 | 20.42417 | -28.19602 | 35001 ft | 521 kts | 127° |
| 2026-04-25 20:27 | 20.38173 | -28.13342 | 35002 ft | 521 kts | 127° |
| 2026-04-25 20:28 | 20.33923 | -28.07081 | 34998 ft | 521 kts | 127° |
| 2026-04-25 20:28 | 20.29698 | -28.00862 | 35005 ft | 521 kts | 127° |
| 2026-04-25 20:29 | 20.25450 | -27.94617 | 35002 ft | 521 kts | 127° |
| 2026-04-25 20:29 | 20.21189 | -27.88359 | 34997 ft | 521 kts | 127° |
| 2026-04-25 20:30 | 20.16930 | -27.82111 | 34999 ft | 521 kts | 127° |
| 2026-04-25 20:30 | 20.12669 | -27.75865 | 34997 ft | 521 kts | 127° |
| 2026-04-25 20:31 | 20.08409 | -27.69629 | 35000 ft | 521 kts | 127° |
| 2026-04-25 20:31 | 20.04144 | -27.63392 | 34999 ft | 521 kts | 127° |
| 2026-04-25 20:32 | 19.99904 | -27.57198 | 35003 ft | 521 kts | 127° |
| 2026-04-25 20:32 | 19.95634 | -27.50966 | 34997 ft | 521 kts | 127° |
| 2026-04-25 20:33 | 19.91362 | -27.44737 | 35004 ft | 521 kts | 127° |
| 2026-04-25 20:33 | 19.88502 | -27.40572 | 35002 ft | 521 kts | 127° |
| 2026-04-25 20:34 | 19.82813 | -27.32294 | 35001 ft | 521 kts | 127° |
| 2026-04-25 20:34 | 19.78533 | -27.26075 | 35004 ft | 521 kts | 127° |
| 2026-04-25 20:35 | 19.74255 | -27.19864 | 35002 ft | 521 kts | 127° |
| 2026-04-25 20:35 | 19.69972 | -27.13652 | 35003 ft | 521 kts | 127° |
| 2026-04-25 20:36 | 19.65714 | -27.07484 | 35002 ft | 521 kts | 127° |
| 2026-04-25 20:36 | 19.61430 | -27.01283 | 35001 ft | 521 kts | 127° |
| 2026-04-25 20:37 | 19.57141 | -26.95082 | 35004 ft | 521 kts | 127° |
| 2026-04-25 20:37 | 19.53545 | -26.89888 | 35001 ft | 521 kts | 127° |
| 2026-04-25 20:38 | 19.48557 | -26.82690 | 35001 ft | 521 kts | 127° |
| 2026-04-25 20:38 | 19.44988 | -26.77546 | 35001 ft | 521 kts | 127° |
| 2026-04-25 20:39 | 19.40690 | -26.71355 | 35000 ft | 521 kts | 127° |
| 2026-04-25 20:39 | 19.37121 | -26.66221 | 35001 ft | 521 kts | 127° |
| 2026-04-25 20:40 | 19.31394 | -26.57989 | 34997 ft | 521 kts | 127° |
| 2026-04-25 20:40 | 19.27792 | -26.52818 | 35001 ft | 521 kts | 127° |
| 2026-04-25 20:41 | 19.23487 | -26.46643 | 35001 ft | 521 kts | 127° |
| 2026-04-25 20:41 | 19.19182 | -26.40474 | 35001 ft | 521 kts | 127° |
| 2026-04-25 20:42 | 19.14873 | -26.34306 | 35002 ft | 521 kts | 127° |
| 2026-04-25 20:42 | 19.10561 | -26.28138 | 34999 ft | 521 kts | 127° |
| 2026-04-25 20:43 | 19.06248 | -26.21976 | 35001 ft | 521 kts | 127° |
| 2026-04-25 20:43 | 19.01938 | -26.15824 | 34998 ft | 521 kts | 127° |
| 2026-04-25 20:44 | 18.97651 | -26.09709 | 35004 ft | 521 kts | 127° |
| 2026-04-25 20:44 | 18.93335 | -26.03549 | 35005 ft | 521 kts | 127° |
| 2026-04-25 20:45 | 18.89055 | -25.97372 | 35003 ft | 521 kts | 127° |
| 2026-04-25 20:45 | 18.84782 | -25.91191 | 35003 ft | 521 kts | 127° |
| 2026-04-25 20:46 | 18.80506 | -25.85020 | 35001 ft | 521 kts | 127° |
| 2026-04-25 20:46 | 18.76244 | -25.78882 | 35003 ft | 521 kts | 127° |
| 2026-04-25 20:47 | 18.71957 | -25.72715 | 35002 ft | 521 kts | 127° |
| 2026-04-25 20:47 | 18.67670 | -25.66554 | 35000 ft | 521 kts | 127° |
| 2026-04-25 20:48 | 18.63370 | -25.60382 | 35004 ft | 521 kts | 127° |
| 2026-04-25 20:48 | 18.59080 | -25.54227 | 34999 ft | 521 kts | 127° |
| 2026-04-25 20:49 | 18.54777 | -25.48062 | 35003 ft | 521 kts | 127° |
| 2026-04-25 20:49 | 18.50482 | -25.41913 | 35004 ft | 521 kts | 127° |
| 2026-04-25 20:50 | 18.46210 | -25.35804 | 35001 ft | 521 kts | 127° |
| 2026-04-25 20:50 | 18.41911 | -25.29660 | 35001 ft | 521 kts | 127° |
| 2026-04-25 20:51 | 18.37609 | -25.23520 | 35001 ft | 521 kts | 127° |
| 2026-04-25 20:51 | 18.33302 | -25.17377 | 34997 ft | 521 kts | 127° |
| 2026-04-25 20:52 | 18.29724 | -25.12280 | 35004 ft | 521 kts | 127° |
| 2026-04-25 20:52 | 18.24688 | -25.05111 | 35002 ft | 521 kts | 127° |
| 2026-04-25 20:53 | 18.20379 | -24.98982 | 35004 ft | 521 kts | 127° |
| 2026-04-25 20:53 | 18.16060 | -24.92846 | 35001 ft | 521 kts | 127° |
| 2026-04-25 20:54 | 18.11744 | -24.86721 | 35002 ft | 521 kts | 127° |
| 2026-04-25 20:54 | 18.07431 | -24.80603 | 35001 ft | 521 kts | 127° |
| 2026-04-25 20:55 | 18.03112 | -24.74485 | 35002 ft | 521 kts | 127° |
| 2026-04-25 20:55 | 17.98793 | -24.68371 | 35001 ft | 521 kts | 127° |
| 2026-04-25 20:56 | 17.94469 | -24.62257 | 35004 ft | 521 kts | 127° |
| 2026-04-25 20:56 | 17.90144 | -24.56147 | 35004 ft | 521 kts | 128° |
| 2026-04-25 20:57 | 17.85851 | -24.50087 | 35002 ft | 521 kts | 128° |
| 2026-04-25 20:57 | 17.81521 | -24.43980 | 35001 ft | 521 kts | 128° |
| 2026-04-25 20:58 | 17.77189 | -24.37875 | 34998 ft | 521 kts | 128° |
| 2026-04-25 20:58 | 17.72851 | -24.31768 | 34996 ft | 521 kts | 128° |
| 2026-04-25 20:59 | 17.68505 | -24.25686 | 34998 ft | 521 kts | 128° |
| 2026-04-25 20:59 | 17.64137 | -24.19628 | 35000 ft | 521 kts | 128° |
| 2026-04-25 21:00 | 17.61239 | -24.15614 | 35004 ft | 521 kts | 128° |
| 2026-04-25 21:01 | 17.53208 | -24.04480 | 35001 ft | 521 kts | 128° |
| 2026-04-25 21:01 | 17.48862 | -23.98457 | 35002 ft | 521 kts | 128° |
| 2026-04-25 21:02 | 17.44491 | -23.92406 | 35004 ft | 521 kts | 128° |
| 2026-04-25 21:02 | 17.40115 | -23.86354 | 35004 ft | 521 kts | 128° |
| 2026-04-25 21:03 | 17.35736 | -23.80303 | 35001 ft | 521 kts | 128° |
| 2026-04-25 21:03 | 17.31355 | -23.74255 | 35002 ft | 521 kts | 128° |
| 2026-04-25 21:04 | 17.26977 | -23.68216 | 34997 ft | 521 kts | 128° |
| 2026-04-25 21:04 | 17.22591 | -23.62172 | 34998 ft | 521 kts | 128° |
| 2026-04-25 21:05 | 17.18209 | -23.56139 | 35004 ft | 521 kts | 128° |
| 2026-04-25 21:05 | 17.13850 | -23.50143 | 34999 ft | 521 kts | 128° |
| 2026-04-25 21:06 | 17.09462 | -23.44111 | 35001 ft | 521 kts | 128° |
| 2026-04-25 21:06 | 17.05072 | -23.38082 | 34996 ft | 521 kts | 128° |
| 2026-04-25 21:07 | 17.00682 | -23.32059 | 35002 ft | 521 kts | 128° |
| 2026-04-25 21:07 | 16.96290 | -23.26038 | 35001 ft | 521 kts | 128° |
| 2026-04-25 21:08 | 16.91891 | -23.20013 | 34997 ft | 521 kts | 128° |
| 2026-04-25 21:08 | 16.87494 | -23.13995 | 35002 ft | 521 kts | 128° |
| 2026-04-25 21:09 | 16.80925 | -23.05012 | 34998 ft | 521 kts | 128° |
| 2026-04-25 21:09 | 16.76537 | -22.98999 | 35003 ft | 521 kts | 127° |
| 2026-04-25 21:10 | 16.72842 | -22.92488 | 35005 ft | 522 kts | 116° |
| 2026-04-25 21:10 | 16.70177 | -22.85434 | 35006 ft | 523 kts | 110° |
| 2026-04-25 21:11 | 16.67759 | -22.78279 | 35001 ft | 523 kts | 110° |
| 2026-04-25 21:11 | 16.65313 | -22.71126 | 35004 ft | 523 kts | 110° |
| 2026-04-25 21:12 | 16.62830 | -22.63987 | 34998 ft | 523 kts | 110° |
| 2026-04-25 21:12 | 16.60757 | -22.58065 | 34997 ft | 523 kts | 110° |
| 2026-04-25 21:13 | 16.57852 | -22.49775 | 34998 ft | 523 kts | 110° |
| 2026-04-25 21:13 | 16.55355 | -22.42651 | 34997 ft | 523 kts | 110° |
| 2026-04-25 21:14 | 16.52855 | -22.35521 | 35000 ft | 523 kts | 110° |
| 2026-04-25 21:14 | 16.50355 | -22.28403 | 35003 ft | 523 kts | 110° |
| 2026-04-25 21:15 | 16.47850 | -22.21279 | 35002 ft | 523 kts | 110° |
| 2026-04-25 21:15 | 16.45345 | -22.14163 | 35003 ft | 523 kts | 110° |
| 2026-04-25 21:16 | 16.42839 | -22.07055 | 35002 ft | 523 kts | 111° |
| 2026-04-25 21:16 | 16.40327 | -21.99936 | 35004 ft | 523 kts | 111° |
| 2026-04-25 21:17 | 16.37831 | -21.92873 | 35006 ft | 523 kts | 111° |
| 2026-04-25 21:17 | 16.35316 | -21.85761 | 34999 ft | 523 kts | 111° |
| 2026-04-25 21:18 | 16.32798 | -21.78652 | 34995 ft | 523 kts | 111° |
| 2026-04-25 21:18 | 16.30280 | -21.71549 | 34999 ft | 523 kts | 111° |
| 2026-04-25 21:19 | 16.27756 | -21.64447 | 35004 ft | 523 kts | 111° |
| 2026-04-25 21:19 | 16.25212 | -21.57356 | 35001 ft | 523 kts | 111° |
| 2026-04-25 21:20 | 16.23505 | -21.52613 | 35002 ft | 523 kts | 111° |
| 2026-04-25 21:20 | 16.20107 | -21.43173 | 35002 ft | 523 kts | 111° |
| 2026-04-25 21:21 | 16.17555 | -21.36083 | 35003 ft | 523 kts | 111° |
| 2026-04-25 21:21 | 16.15003 | -21.29000 | 34999 ft | 523 kts | 111° |
| 2026-04-25 21:22 | 16.12463 | -21.21958 | 35002 ft | 523 kts | 111° |
| 2026-04-25 21:22 | 16.09904 | -21.14873 | 35004 ft | 523 kts | 111° |
| 2026-04-25 21:23 | 16.07343 | -21.07791 | 35002 ft | 523 kts | 111° |
| 2026-04-25 21:23 | 16.04778 | -21.00705 | 35002 ft | 523 kts | 111° |
| 2026-04-25 21:24 | 16.02214 | -20.93633 | 35003 ft | 523 kts | 111° |
| 2026-04-25 21:24 | 15.99651 | -20.86569 | 34996 ft | 522 kts | 111° |
| 2026-04-25 21:25 | 15.97089 | -20.79518 | 35004 ft | 521 kts | 111° |
| 2026-04-25 21:25 | 15.94528 | -20.72476 | 35003 ft | 520 kts | 111° |
| 2026-04-25 21:26 | 15.91966 | -20.65444 | 34997 ft | 520 kts | 111° |
| 2026-04-25 21:26 | 15.89406 | -20.58420 | 35000 ft | 520 kts | 111° |
| 2026-04-25 21:27 | 15.86861 | -20.51445 | 34997 ft | 520 kts | 111° |
| 2026-04-25 21:27 | 15.84297 | -20.44426 | 34999 ft | 520 kts | 111° |
| 2026-04-25 21:28 | 15.81730 | -20.37410 | 35000 ft | 520 kts | 111° |
| 2026-04-25 21:28 | 15.79161 | -20.30395 | 35002 ft | 520 kts | 111° |
| 2026-04-25 21:29 | 15.76591 | -20.23385 | 34998 ft | 520 kts | 111° |
| 2026-04-25 21:29 | 15.74017 | -20.16371 | 35002 ft | 520 kts | 111° |
| 2026-04-25 21:30 | 15.71437 | -20.09346 | 35002 ft | 520 kts | 111° |
| 2026-04-25 21:30 | 15.69292 | -20.03512 | 35000 ft | 520 kts | 111° |
| 2026-04-25 21:31 | 15.66313 | -19.95343 | 34999 ft | 520 kts | 111° |
| 2026-04-25 21:31 | 15.63809 | -19.88300 | 35002 ft | 520 kts | 111° |
| 2026-04-25 21:32 | 15.61730 | -19.82446 | 35006 ft | 520 kts | 111° |
| 2026-04-25 21:32 | 15.59216 | -19.75401 | 34999 ft | 520 kts | 111° |
| 2026-04-25 21:33 | 15.56696 | -19.68364 | 35002 ft | 520 kts | 111° |
| 2026-04-25 21:33 | 15.54176 | -19.61334 | 34996 ft | 520 kts | 111° |
| 2026-04-25 21:34 | 15.51655 | -19.54305 | 34998 ft | 520 kts | 111° |
| 2026-04-25 21:34 | 15.49129 | -19.47269 | 35006 ft | 520 kts | 111° |
| 2026-04-25 21:35 | 15.46602 | -19.40239 | 35001 ft | 520 kts | 111° |
| 2026-04-25 21:35 | 15.44090 | -19.33254 | 35000 ft | 520 kts | 111° |
| 2026-04-25 21:36 | 15.41561 | -19.26222 | 35000 ft | 520 kts | 111° |
| 2026-04-25 21:36 | 15.39034 | -19.19197 | 35003 ft | 520 kts | 111° |
| 2026-04-25 21:37 | 15.36933 | -19.13357 | 35002 ft | 520 kts | 111° |
| 2026-04-25 21:37 | 15.33978 | -19.05142 | 34999 ft | 520 kts | 111° |
| 2026-04-25 21:38 | 15.31456 | -18.98122 | 35000 ft | 520 kts | 111° |
| 2026-04-25 21:38 | 15.28827 | -18.91283 | 34977 ft | 494 kts | 113° |
| 2026-04-25 21:39 | 15.27536 | -18.88048 | 34979 ft | 478 kts | 113° |
| 2026-04-25 21:39 | 15.26281 | -18.84920 | 34977 ft | 463 kts | 113° |
| 2026-04-25 21:39 | 15.23809 | -18.78800 | 35005 ft | 464 kts | 114° |
| 2026-04-25 21:40 | 15.20978 | -18.72823 | 35002 ft | 461 kts | 118° |
| 2026-04-25 21:40 | 15.18023 | -18.66952 | 35000 ft | 459 kts | 118° |
| 2026-04-25 21:41 | 15.15080 | -18.61100 | 35003 ft | 458 kts | 118° |
| 2026-04-25 21:41 | 15.12158 | -18.55248 | 35006 ft | 457 kts | 118° |
| 2026-04-25 21:42 | 15.09245 | -18.49398 | 35002 ft | 458 kts | 118° |
| 2026-04-25 21:42 | 15.06324 | -18.43532 | 35003 ft | 459 kts | 118° |
| 2026-04-25 21:43 | 15.03395 | -18.37659 | 34997 ft | 460 kts | 118° |
| 2026-04-25 21:43 | 15.01933 | -18.34727 | 34738 ft | 457 kts | 118° |
| 2026-04-25 21:43 | 15.00482 | -18.31821 | 34267 ft | 454 kts | 118° |
| 2026-04-25 21:44 | 14.99037 | -18.28926 | 33791 ft | 451 kts | 118° |
| 2026-04-25 21:44 | 14.97601 | -18.26050 | 33327 ft | 448 kts | 118° |
| 2026-04-25 21:44 | 14.94758 | -18.20364 | 32440 ft | 442 kts | 118° |
| 2026-04-25 21:45 | 14.93351 | -18.17550 | 32003 ft | 439 kts | 118° |
| 2026-04-25 21:45 | 14.92423 | -18.15695 | 31713 ft | 437 kts | 118° |
| 2026-04-25 21:45 | 14.90584 | -18.12019 | 31130 ft | 433 kts | 118° |
| 2026-04-25 21:45 | 14.89186 | -18.09227 | 30691 ft | 430 kts | 118° |
| 2026-04-25 21:46 | 14.87816 | -18.06492 | 30254 ft | 427 kts | 118° |
| 2026-04-25 21:46 | 14.86456 | -18.03778 | 29820 ft | 424 kts | 118° |
| 2026-04-25 21:46 | 14.85121 | -18.01115 | 29400 ft | 421 kts | 118° |
| 2026-04-25 21:46 | 14.83778 | -17.98436 | 28979 ft | 418 kts | 118° |
| 2026-04-25 21:47 | 14.82440 | -17.95770 | 28535 ft | 416 kts | 118° |
| 2026-04-25 21:47 | 14.81115 | -17.93129 | 28111 ft | 413 kts | 118° |
| 2026-04-25 21:47 | 14.79797 | -17.90502 | 27692 ft | 410 kts | 118° |
| 2026-04-25 21:47 | 14.78485 | -17.87889 | 27278 ft | 408 kts | 118° |
| 2026-04-25 21:48 | 14.77182 | -17.85295 | 26876 ft | 405 kts | 118° |
| 2026-04-25 21:48 | 14.75888 | -17.82719 | 26465 ft | 403 kts | 118° |
| 2026-04-25 21:48 | 14.74603 | -17.80164 | 26048 ft | 400 kts | 118° |
| 2026-04-25 21:48 | 14.73323 | -17.77618 | 25654 ft | 398 kts | 118° |
| 2026-04-25 21:49 | 14.72053 | -17.75092 | 25249 ft | 395 kts | 118° |
| 2026-04-25 21:49 | 14.70789 | -17.72580 | 24845 ft | 393 kts | 118° |
| 2026-04-25 21:49 | 14.69532 | -17.70083 | 24462 ft | 390 kts | 118° |
| 2026-04-25 21:49 | 14.68300 | -17.67636 | 24082 ft | 388 kts | 118° |
| 2026-04-25 21:50 | 14.67056 | -17.65166 | 23682 ft | 386 kts | 118° |
| 2026-04-25 21:50 | 14.65824 | -17.62720 | 23297 ft | 384 kts | 118° |
| 2026-04-25 21:50 | 14.64595 | -17.60282 | 22901 ft | 381 kts | 118° |
| 2026-04-25 21:50 | 14.63786 | -17.58676 | 22675 ft | 380 kts | 118° |
| 2026-04-25 21:51 | 14.62159 | -17.55450 | 22155 ft | 377 kts | 118° |
| 2026-04-25 21:51 | 14.60951 | -17.53054 | 21776 ft | 371 kts | 118° |
| 2026-04-25 21:51 | 14.59768 | -17.50735 | 21062 ft | 361 kts | 122° |
| 2026-04-25 21:51 | 14.58401 | -17.48578 | 20111 ft | 358 kts | 127° |
| 2026-04-25 21:52 | 14.56926 | -17.46506 | 19170 ft | 357 kts | 128° |
| 2026-04-25 21:52 | 14.55434 | -17.44465 | 18265 ft | 354 kts | 128° |
| 2026-04-25 21:52 | 14.53957 | -17.42455 | 17451 ft | 349 kts | 129° |
| 2026-04-25 21:52 | 14.52495 | -17.40470 | 16634 ft | 344 kts | 129° |
| 2026-04-25 21:53 | 14.51068 | -17.38535 | 15890 ft | 338 kts | 129° |
| 2026-04-25 21:53 | 14.49667 | -17.36634 | 15336 ft | 327 kts | 129° |
| 2026-04-25 21:53 | 14.48310 | -17.34791 | 14761 ft | 317 kts | 129° |
| 2026-04-25 21:53 | 14.47110 | -17.33161 | 14272 ft | 310 kts | 129° |
| 2026-04-25 21:54 | 14.46417 | -17.32217 | 13933 ft | 307 kts | 129° |
| 2026-04-25 21:54 | 14.45119 | -17.30450 | 13248 ft | 303 kts | 129° |
| 2026-04-25 21:54 | 14.43852 | -17.28724 | 12546 ft | 301 kts | 129° |
| 2026-04-25 21:54 | 14.42591 | -17.27007 | 11856 ft | 298 kts | 129° |
| 2026-04-25 21:55 | 14.41287 | -17.25366 | 11168 ft | 294 kts | 133° |
| 2026-04-25 21:55 | 14.39939 | -17.23790 | 10488 ft | 291 kts | 134° |
| 2026-04-25 21:55 | 14.38596 | -17.22234 | 9815 ft | 289 kts | 134° |
| 2026-04-25 21:55 | 14.37283 | -17.20718 | 9140 ft | 286 kts | 134° |
| 2026-04-25 21:56 | 14.35965 | -17.19198 | 8460 ft | 283 kts | 134° |
| 2026-04-25 21:56 | 14.35080 | -17.18178 | 8014 ft | 281 kts | 134° |
| 2026-04-25 21:56 | 14.33366 | -17.16201 | 7118 ft | 278 kts | 134° |
| 2026-04-25 21:56 | 14.32097 | -17.14737 | 6724 ft | 265 kts | 134° |
| 2026-04-25 21:57 | 14.30912 | -17.13284 | 6764 ft | 274 kts | 123° |
| 2026-04-25 21:57 | 14.30219 | -17.11403 | 6685 ft | 289 kts | 101° |
| 2026-04-25 21:57 | 14.29972 | -17.09332 | 6445 ft | 288 kts | 92° |
| 2026-04-25 21:57 | 14.30239 | -17.07358 | 6421 ft | 274 kts | 65° |
| 2026-04-25 21:58 | 14.31253 | -17.05730 | 6426 ft | 272 kts | 48° |
| 2026-04-25 21:58 | 14.32538 | -17.04246 | 6122 ft | 281 kts | 45° |
| 2026-04-25 21:58 | 14.33805 | -17.02857 | 6046 ft | 275 kts | 44° |
| 2026-04-25 21:58 | 14.35127 | -17.01417 | 5734 ft | 277 kts | 44° |
| 2026-04-25 21:59 | 14.36469 | -17.00058 | 5661 ft | 265 kts | 33° |
| 2026-04-25 21:59 | 14.38146 | -16.99337 | 5383 ft | 262 kts | 3° |
| 2026-04-25 21:59 | 14.39910 | -16.99540 | 5097 ft | 253 kts | 334° |
| 2026-04-25 22:00 | 14.42602 | -17.01440 | 4824 ft | 221 kts | 323° |
| 2026-04-25 22:00 | 14.43869 | -17.02259 | 4655 ft | 210 kts | 325° |
| 2026-04-25 22:00 | 14.45089 | -17.03034 | 4404 ft | 202 kts | 325° |
| 2026-04-25 22:00 | 14.46262 | -17.03786 | 4197 ft | 195 kts | 324° |
| 2026-04-25 22:01 | 14.47381 | -17.04507 | 3974 ft | 188 kts | 324° |
| 2026-04-25 22:01 | 14.48465 | -17.05206 | 3722 ft | 180 kts | 324° |
| 2026-04-25 22:01 | 14.49502 | -17.05877 | 3481 ft | 171 kts | 324° |
| 2026-04-25 22:01 | 14.50173 | -17.06311 | 3345 ft | 166 kts | 324° |
| 2026-04-25 22:02 | 14.51533 | -17.07039 | 3176 ft | 174 kts | 346° |
| 2026-04-25 22:02 | 14.52764 | -17.07155 | 3156 ft | 180 kts | 349° |
| 2026-04-25 22:02 | 14.54023 | -17.07276 | 3120 ft | 182 kts | 353° |
| 2026-04-25 22:02 | 14.55277 | -17.07300 | 3133 ft | 180 kts | 356° |
| 2026-04-25 22:03 | 14.56522 | -17.07295 | 3123 ft | 177 kts | 356° |
| 2026-04-25 22:03 | 14.57735 | -17.07290 | 3140 ft | 175 kts | 356° |
| 2026-04-25 22:03 | 14.58977 | -17.07252 | 3049 ft | 184 kts | 360° |
| 2026-04-25 22:03 | 14.60311 | -17.07179 | 2241 ft | 197 kts | 358° |
| 2026-04-25 22:04 | 14.61647 | -17.07194 | 1697 ft | 188 kts | 355° |
| 2026-04-25 22:04 | 14.62930 | -17.07222 | 1156 ft | 181 kts | 355° |
| 2026-04-25 22:04 | 14.64157 | -17.07243 | 689 ft | 173 kts | 356° |
| 2026-04-25 22:04 | 14.65306 | -17.07265 | 393 ft | 163 kts | 357° |
| 2026-04-25 22:05 | 14.66475 | -17.07280 | 307 ft | 155 kts | 358° |
| 2026-04-25 22:05 | 14.67260 | -17.07288 | 305 ft | 68 kts | 360° |
| 2026-04-25 22:05 | 14.67387 | -17.07285 | 308 ft | 18 kts | 1° |
| 2026-04-25 22:05 | 14.67749 | -17.07286 | 303 ft | 89 kts | 357° |
| 2026-04-25 22:06 | 14.68408 | -17.07302 | 306 ft | 81 kts | 2° |
| 2026-04-25 22:06 | 14.68581 | -17.07192 | 310 ft | 2 kts | 104° |
| 2026-04-25 22:06 | 14.68578 | -17.07179 | 308 ft | 0 kts | 104° |
| 2026-04-25 22:06 | 14.68578 | -17.07176 | 308 ft | 1 kts | 104° |
| 2026-04-25 22:07 | 14.68577 | -17.07173 | 307 ft | 0 kts | 104° |
| 2026-04-25 22:07 | 14.68572 | -17.07154 | 307 ft | 14 kts | 106° |
| 2026-04-25 22:07 | 14.68448 | -17.07106 | 309 ft | 22 kts | 177° |
| 2026-04-25 22:08 | 14.68298 | -17.07102 | 306 ft | 22 kts | 178° |
| 2026-04-25 22:08 | 14.68104 | -17.07100 | 309 ft | 38 kts | 181° |
| 2026-04-25 22:08 | 14.67763 | -17.07097 | 306 ft | 59 kts | 179° |
| 2026-04-25 22:08 | 14.67407 | -17.07095 | 309 ft | 44 kts | 180° |
| 2026-04-25 22:09 | 14.67122 | -17.07093 | 306 ft | 34 kts | 178° |
| 2026-04-25 22:09 | 14.67055 | -17.07090 | 307 ft | 2 kts | 178° |
| 2026-04-25 22:09 | 14.66933 | -17.07089 | 309 ft | 33 kts | 179° |
| 2026-04-25 22:09 | 14.66671 | -17.07086 | 306 ft | 35 kts | 179° |
| 2026-04-25 22:10 | 14.66434 | -17.07087 | 306 ft | 33 kts | 180° |
| 2026-04-25 22:10 | 14.66212 | -17.07084 | 306 ft | 31 kts | 179° |
| 2026-04-25 22:10 | 14.66000 | -17.07082 | 306 ft | 30 kts | 179° |
| 2026-04-25 22:10 | 14.65791 | -17.07078 | 307 ft | 30 kts | 178° |
| 2026-04-25 22:11 | 14.65632 | -17.07074 | 306 ft | 18 kts | 182° |
| 2026-04-25 22:11 | 14.65540 | -17.07105 | 307 ft | 11 kts | 239° |
| 2026-04-25 22:11 | 14.65528 | -17.07215 | 305 ft | 23 kts | 269° |
| 2026-04-25 22:11 | 14.65525 | -17.07427 | 306 ft | 28 kts | 267° |
| 2026-04-25 22:12 | 14.65523 | -17.07476 | 306 ft | 0 kts | 268° |
| 2026-04-25 22:12 | 14.65522 | -17.07574 | 306 ft | 31 kts | 271° |
| 2026-04-25 22:12 | 14.65522 | -17.07702 | 306 ft | 0 kts | 270° |